<?xml version="1.0" encoding="UTF-8" standalone="no" ?>
<gpx xmlns="http://www.topografix.com/GPX/1/1" xmlns:xsi="http://www.w3.org/2001/XMLSchema-instance" xsi:schemaLocation="http://www.topografix.com/GPX/1/1 http://www.topografix.com/GPX/1/1/gpx.xsd" version="1.1" creator="VisuGPX - https://www.visugpx.com">
  <metadata>
    <name>acces pas des betes vintrou</name>
  </metadata>
  <trk>
    <name><![CDATA[La Fontaine d'Artigues - 9232 - UtagawaVTT.com]]></name>
    <extensions>
      <line xmlns="http://www.topografix.com/GPX/gpx_style/0/2">
        <color>0000FF</color>
        <width>4</width>
      </line>
    </extensions>
    <trkseg>
      <trkpt lat="43.49444" lon="2.37507">
        <ele>246.166855</ele>
        <time>2014-12-12T11:25:22Z</time>
      </trkpt>
      <trkpt lat="43.49444" lon="2.37507">
        <ele>246.166855</ele>
        <time>2014-12-12T11:25:22Z</time>
      </trkpt>
      <trkpt lat="43.49415" lon="2.37489">
        <ele>246.839508</ele>
        <time>2014-12-12T11:25:00Z</time>
      </trkpt>
      <trkpt lat="43.49409" lon="2.37525">
        <ele>246.377747</ele>
        <time>2014-12-12T11:24:55Z</time>
      </trkpt>
      <trkpt lat="43.49403" lon="2.3755">
        <ele>246.190002</ele>
        <time>2014-12-12T11:24:52Z</time>
      </trkpt>
      <trkpt lat="43.49404" lon="2.37574">
        <ele>246.157501</ele>
        <time>2014-12-12T11:24:49Z</time>
      </trkpt>
      <trkpt lat="43.49431" lon="2.37594">
        <ele>246</ele>
        <time>2014-12-12T11:24:44Z</time>
      </trkpt>
      <trkpt lat="43.49458" lon="2.3761">
        <ele>245.922501</ele>
        <time>2014-12-12T11:24:39Z</time>
      </trkpt>
      <trkpt lat="43.49488" lon="2.37637">
        <ele>244.805008</ele>
        <time>2014-12-12T11:24:33Z</time>
      </trkpt>
      <trkpt lat="43.49512" lon="2.37699">
        <ele>243.266251</ele>
        <time>2014-12-12T11:24:24Z</time>
      </trkpt>
      <trkpt lat="43.49578" lon="2.37735">
        <ele>241.867493</ele>
        <time>2014-12-12T11:24:05Z</time>
      </trkpt>
      <trkpt lat="43.49597" lon="2.37747">
        <ele>241.241043</ele>
        <time>2014-12-12T11:24:01Z</time>
      </trkpt>
      <trkpt lat="43.49613" lon="2.37776">
        <ele>239.927719</ele>
        <time>2014-12-12T11:23:56Z</time>
      </trkpt>
      <trkpt lat="43.49635" lon="2.37798">
        <ele>239.027496</ele>
        <time>2014-12-12T11:23:50Z</time>
      </trkpt>
      <trkpt lat="43.49644" lon="2.37762">
        <ele>239.238892</ele>
        <time>2014-12-12T11:23:43Z</time>
      </trkpt>
      <trkpt lat="43.49625" lon="2.37792">
        <ele>239.276566</ele>
        <time>2014-12-12T11:23:36Z</time>
      </trkpt>
      <trkpt lat="43.49614" lon="2.37853">
        <ele>239.490005</ele>
        <time>2014-12-12T11:23:28Z</time>
      </trkpt>
      <trkpt lat="43.4961" lon="2.37903">
        <ele>240.033005</ele>
        <time>2014-12-12T11:23:22Z</time>
      </trkpt>
      <trkpt lat="43.4961" lon="2.37955">
        <ele>240.762497</ele>
        <time>2014-12-12T11:23:16Z</time>
      </trkpt>
      <trkpt lat="43.49631" lon="2.38118">
        <ele>243.08902</ele>
        <time>2014-12-12T11:22:56Z</time>
      </trkpt>
      <trkpt lat="43.49636" lon="2.38151">
        <ele>244.370773</ele>
      </trkpt>
      <trkpt lat="43.49629" lon="2.38192">
        <ele>246.61348</ele>
      </trkpt>
      <trkpt lat="43.49647" lon="2.38209">
        <ele>246.703751</ele>
        <time>2014-12-12T11:22:35Z</time>
      </trkpt>
      <trkpt lat="43.49666" lon="2.38359">
        <ele>248.210251</ele>
        <time>2014-12-12T11:22:14Z</time>
      </trkpt>
      <trkpt lat="43.49682" lon="2.38463">
        <ele>245.180008</ele>
        <time>2014-12-12T11:22:02Z</time>
      </trkpt>
      <trkpt lat="43.49693" lon="2.38551">
        <ele>242.152496</ele>
        <time>2014-12-12T11:21:52Z</time>
      </trkpt>
      <trkpt lat="43.49695" lon="2.38577">
        <ele>241.657501</ele>
        <time>2014-12-12T11:21:49Z</time>
      </trkpt>
      <trkpt lat="43.49695" lon="2.38636">
        <ele>241.142151</ele>
        <time>2014-12-12T11:21:42Z</time>
      </trkpt>
      <trkpt lat="43.49693" lon="2.38668">
        <ele>240.981247</ele>
        <time>2014-12-12T11:21:38Z</time>
      </trkpt>
      <trkpt lat="43.49684" lon="2.38699">
        <ele>241.082504</ele>
        <time>2014-12-12T11:21:33Z</time>
      </trkpt>
      <trkpt lat="43.49675" lon="2.38719">
        <ele>241.382507</ele>
        <time>2014-12-12T11:21:30Z</time>
      </trkpt>
      <trkpt lat="43.4966" lon="2.38782">
        <ele>241.354996</ele>
        <time>2014-12-12T11:21:22Z</time>
      </trkpt>
      <trkpt lat="43.49626" lon="2.38914">
        <ele>241.301682</ele>
        <time>2014-12-12T11:21:02Z</time>
      </trkpt>
      <trkpt lat="43.49604" lon="2.39009">
        <ele>238.313751</ele>
        <time>2014-12-12T11:20:41Z</time>
      </trkpt>
      <trkpt lat="43.49599" lon="2.39049">
        <ele>237.224075</ele>
        <time>2014-12-12T11:20:30Z</time>
      </trkpt>
      <trkpt lat="43.49616" lon="2.39067">
        <ele>235.856461</ele>
        <time>2014-12-12T11:20:20Z</time>
      </trkpt>
      <trkpt lat="43.49636" lon="2.39069">
        <ele>234.632507</ele>
        <time>2014-12-12T11:20:14Z</time>
      </trkpt>
      <trkpt lat="43.49656" lon="2.39075">
        <ele>233.565002</ele>
        <time>2014-12-12T11:20:09Z</time>
      </trkpt>
      <trkpt lat="43.49686" lon="2.39086">
        <ele>231.828384</ele>
        <time>2014-12-12T11:20:01Z</time>
      </trkpt>
      <trkpt lat="43.49703" lon="2.39091">
        <ele>230.953751</ele>
        <time>2014-12-12T11:19:57Z</time>
      </trkpt>
      <trkpt lat="43.49747" lon="2.39114">
        <ele>227.699219</ele>
      </trkpt>
      <trkpt lat="43.49751" lon="2.39124">
        <ele>227.546875</ele>
      </trkpt>
      <trkpt lat="43.49755" lon="2.3914">
        <ele>227.402344</ele>
      </trkpt>
      <trkpt lat="43.49752" lon="2.39191">
        <ele>227.519531</ele>
      </trkpt>
      <trkpt lat="43.49748" lon="2.39292">
        <ele>227.296875</ele>
      </trkpt>
      <trkpt lat="43.49789" lon="2.39299">
        <ele>224.359375</ele>
      </trkpt>
      <trkpt lat="43.49796" lon="2.39218">
        <ele>224.855469</ele>
      </trkpt>
      <trkpt lat="43.49802" lon="2.39189">
        <ele>224.703125</ele>
      </trkpt>
      <trkpt lat="43.49812" lon="2.39082">
        <ele>224.714844</ele>
      </trkpt>
      <trkpt lat="43.49825" lon="2.39069">
        <ele>223.668747</ele>
        <time>2014-12-12T11:19:10Z</time>
      </trkpt>
      <trkpt lat="43.4987" lon="2.3908">
        <ele>220.886459</ele>
        <time>2014-12-12T11:19:03Z</time>
      </trkpt>
      <trkpt lat="43.49896" lon="2.39093">
        <ele>220.225647</ele>
        <time>2014-12-12T09:23:01Z</time>
      </trkpt>
      <trkpt lat="43.49977" lon="2.39126">
        <ele>223.798752</ele>
        <time>2014-12-12T09:23:18Z</time>
      </trkpt>
      <trkpt lat="43.50005" lon="2.39142">
        <ele>225.037231</ele>
        <time>2014-12-12T09:23:25Z</time>
      </trkpt>
      <trkpt lat="43.5002" lon="2.39152">
        <ele>225.587494</ele>
        <time>2014-12-12T09:23:29Z</time>
      </trkpt>
      <trkpt lat="43.50051" lon="2.39179">
        <ele>226.448746</ele>
        <time>2014-12-12T09:23:37Z</time>
      </trkpt>
      <trkpt lat="43.50086" lon="2.39221">
        <ele>226.95784</ele>
        <time>2014-12-12T09:23:46Z</time>
      </trkpt>
      <trkpt lat="43.50114" lon="2.3927">
        <ele>226.298279</ele>
        <time>2014-12-12T09:23:54Z</time>
      </trkpt>
      <trkpt lat="43.50146" lon="2.39338">
        <ele>226.63063</ele>
        <time>2014-12-12T09:24:04Z</time>
      </trkpt>
      <trkpt lat="43.50179" lon="2.39396">
        <ele>226.856705</ele>
        <time>2014-12-12T09:24:13Z</time>
      </trkpt>
      <trkpt lat="43.50212" lon="2.39438">
        <ele>227.342102</ele>
        <time>2014-12-12T09:24:20Z</time>
      </trkpt>
      <trkpt lat="43.50239" lon="2.39463">
        <ele>228.075607</ele>
        <time>2014-12-12T09:24:25Z</time>
      </trkpt>
      <trkpt lat="43.50308" lon="2.39509">
        <ele>229.377396</ele>
        <time>2014-12-12T09:24:36Z</time>
      </trkpt>
      <trkpt lat="43.50341" lon="2.39528">
        <ele>230.907501</ele>
        <time>2014-12-12T09:24:42Z</time>
      </trkpt>
      <trkpt lat="43.50364" lon="2.39528">
        <ele>231.447556</ele>
        <time>2014-12-12T09:24:46Z</time>
      </trkpt>
      <trkpt lat="43.50389" lon="2.39515">
        <ele>231.342499</ele>
        <time>2014-12-12T09:24:51Z</time>
      </trkpt>
      <trkpt lat="43.50408" lon="2.39511">
        <ele>231.488113</ele>
        <time>2014-12-12T09:24:55Z</time>
      </trkpt>
      <trkpt lat="43.50425" lon="2.39513">
        <ele>232.047012</ele>
        <time>2014-12-12T09:24:59Z</time>
      </trkpt>
      <trkpt lat="43.50488" lon="2.39544">
        <ele>234.714996</ele>
        <time>2014-12-12T09:25:14Z</time>
      </trkpt>
      <trkpt lat="43.50523" lon="2.39559">
        <ele>235.957504</ele>
        <time>2014-12-12T09:25:22Z</time>
      </trkpt>
      <trkpt lat="43.50557" lon="2.39578">
        <ele>237.835007</ele>
        <time>2014-12-12T09:25:30Z</time>
      </trkpt>
      <trkpt lat="43.5063" lon="2.39624">
        <ele>243.669922</ele>
        <time>2014-12-12T09:25:48Z</time>
      </trkpt>
      <trkpt lat="43.50667" lon="2.39643">
        <ele>245.884659</ele>
        <time>2014-12-12T09:25:57Z</time>
      </trkpt>
      <trkpt lat="43.50677" lon="2.39645">
        <ele>242.5</ele>
      </trkpt>
      <trkpt lat="43.50683" lon="2.3965">
        <ele>242.6</ele>
      </trkpt>
      <trkpt lat="43.50684" lon="2.39656">
        <ele>242.8</ele>
      </trkpt>
      <trkpt lat="43.50687" lon="2.3966">
        <ele>242.9</ele>
      </trkpt>
      <trkpt lat="43.50693" lon="2.39663">
        <ele>242.9</ele>
      </trkpt>
      <trkpt lat="43.50697" lon="2.39663">
        <ele>242.9</ele>
      </trkpt>
      <trkpt lat="43.507" lon="2.3966">
        <ele>242.9</ele>
      </trkpt>
      <trkpt lat="43.50718" lon="2.39661">
        <ele>242.9</ele>
      </trkpt>
      <trkpt lat="43.50731" lon="2.39658">
        <ele>242.9</ele>
      </trkpt>
      <trkpt lat="43.50747" lon="2.39657">
        <ele>242.9</ele>
      </trkpt>
      <trkpt lat="43.50762" lon="2.39655">
        <ele>243.3</ele>
      </trkpt>
      <trkpt lat="43.50779" lon="2.39653">
        <ele>243.8</ele>
      </trkpt>
      <trkpt lat="43.50833" lon="2.39647">
        <ele>245.3</ele>
      </trkpt>
      <trkpt lat="43.50851" lon="2.39646">
        <ele>245.3</ele>
      </trkpt>
      <trkpt lat="43.5087" lon="2.39646">
        <ele>245.4</ele>
      </trkpt>
      <trkpt lat="43.50882" lon="2.3965">
        <ele>245.6</ele>
      </trkpt>
      <trkpt lat="43.50904" lon="2.39665">
        <ele>246.7</ele>
      </trkpt>
      <trkpt lat="43.51092" lon="2.3982">
        <ele>252.7</ele>
      </trkpt>
      <trkpt lat="43.51111" lon="2.39834">
        <ele>253.1</ele>
      </trkpt>
      <trkpt lat="43.51155" lon="2.39873">
        <ele>255</ele>
      </trkpt>
      <trkpt lat="43.51242" lon="2.39948">
        <ele>261.9</ele>
      </trkpt>
      <trkpt lat="43.51264" lon="2.39962">
        <ele>263.6</ele>
      </trkpt>
      <trkpt lat="43.51286" lon="2.39967">
        <ele>263.5</ele>
      </trkpt>
      <trkpt lat="43.5135" lon="2.39969">
        <ele>261.8</ele>
      </trkpt>
      <trkpt lat="43.51379" lon="2.39967">
        <ele>261.7</ele>
      </trkpt>
      <trkpt lat="43.51397" lon="2.39965">
        <ele>261.8</ele>
      </trkpt>
      <trkpt lat="43.51445" lon="2.39947">
        <ele>264.2</ele>
      </trkpt>
      <trkpt lat="43.51471" lon="2.39947">
        <ele>265.9</ele>
      </trkpt>
      <trkpt lat="43.51482" lon="2.39944">
        <ele>266.8</ele>
      </trkpt>
      <trkpt lat="43.51502" lon="2.39929">
        <ele>269.2</ele>
      </trkpt>
      <trkpt lat="43.51507" lon="2.3992">
        <ele>270.1</ele>
      </trkpt>
      <trkpt lat="43.51526" lon="2.39864">
        <ele>276.3</ele>
      </trkpt>
      <trkpt lat="43.51535" lon="2.39851">
        <ele>277.8</ele>
      </trkpt>
      <trkpt lat="43.51544" lon="2.39847">
        <ele>278.3</ele>
      </trkpt>
      <trkpt lat="43.51579" lon="2.39855">
        <ele>278.3</ele>
      </trkpt>
      <trkpt lat="43.51654" lon="2.39867">
        <ele>284.7</ele>
      </trkpt>
      <trkpt lat="43.51658" lon="2.39868">
        <ele>285</ele>
      </trkpt>
      <trkpt lat="43.51668" lon="2.39868">
        <ele>286.1</ele>
      </trkpt>
      <trkpt lat="43.51675" lon="2.39859">
        <ele>287.3</ele>
      </trkpt>
      <trkpt lat="43.51678" lon="2.39852">
        <ele>288</ele>
      </trkpt>
      <trkpt lat="43.51686" lon="2.39791">
        <ele>290.2</ele>
      </trkpt>
      <trkpt lat="43.5169" lon="2.39782">
        <ele>290.7</ele>
      </trkpt>
      <trkpt lat="43.51695" lon="2.39776">
        <ele>291.3</ele>
      </trkpt>
      <trkpt lat="43.51703" lon="2.39771">
        <ele>292.1</ele>
      </trkpt>
      <trkpt lat="43.51822" lon="2.39722">
        <ele>301.4</ele>
      </trkpt>
      <trkpt lat="43.51837" lon="2.3972">
        <ele>302.2</ele>
      </trkpt>
      <trkpt lat="43.51852" lon="2.39722">
        <ele>302.8</ele>
      </trkpt>
      <trkpt lat="43.52017" lon="2.39778">
        <ele>311.3</ele>
      </trkpt>
      <trkpt lat="43.52029" lon="2.39786">
        <ele>311.4</ele>
      </trkpt>
      <trkpt lat="43.52035" lon="2.39798">
        <ele>312.2</ele>
      </trkpt>
      <trkpt lat="43.5204" lon="2.39814">
        <ele>313.6</ele>
      </trkpt>
      <trkpt lat="43.52043" lon="2.39832">
        <ele>315.3</ele>
      </trkpt>
      <trkpt lat="43.52066" lon="2.39952">
        <ele>329.3</ele>
      </trkpt>
      <trkpt lat="43.52066" lon="2.3997">
        <ele>331.2</ele>
      </trkpt>
      <trkpt lat="43.52062" lon="2.39984">
        <ele>332.5</ele>
      </trkpt>
      <trkpt lat="43.52039" lon="2.4005">
        <ele>334.9</ele>
      </trkpt>
      <trkpt lat="43.52038" lon="2.40066">
        <ele>335.7</ele>
      </trkpt>
      <trkpt lat="43.52042" lon="2.40077">
        <ele>336.7</ele>
      </trkpt>
      <trkpt lat="43.52089" lon="2.40166">
        <ele>346.5</ele>
      </trkpt>
      <trkpt lat="43.52164" lon="2.40309">
        <ele>359.8</ele>
      </trkpt>
      <trkpt lat="43.52175" lon="2.40335">
        <ele>361.8</ele>
      </trkpt>
      <trkpt lat="43.522" lon="2.40462">
        <ele>363.8</ele>
      </trkpt>
      <trkpt lat="43.52208" lon="2.40485">
        <ele>364.4</ele>
      </trkpt>
      <trkpt lat="43.52219" lon="2.40503">
        <ele>366.5</ele>
      </trkpt>
      <trkpt lat="43.52292" lon="2.40589">
        <ele>378.7</ele>
      </trkpt>
      <trkpt lat="43.523" lon="2.40607">
        <ele>380.9</ele>
      </trkpt>
      <trkpt lat="43.52321" lon="2.40708">
        <ele>387.7</ele>
      </trkpt>
      <trkpt lat="43.52325" lon="2.40716">
        <ele>388.8</ele>
      </trkpt>
      <trkpt lat="43.52332" lon="2.40716">
        <ele>391.3</ele>
      </trkpt>
      <trkpt lat="43.5234" lon="2.40711">
        <ele>393.5</ele>
      </trkpt>
      <trkpt lat="43.52363" lon="2.40672">
        <ele>399</ele>
      </trkpt>
      <trkpt lat="43.52392" lon="2.40631">
        <ele>400.5</ele>
      </trkpt>
      <trkpt lat="43.52402" lon="2.40623">
        <ele>401.2</ele>
      </trkpt>
      <trkpt lat="43.52472" lon="2.40612">
        <ele>409</ele>
      </trkpt>
      <trkpt lat="43.52545" lon="2.4061">
        <ele>415.3</ele>
      </trkpt>
      <trkpt lat="43.52575" lon="2.40618">
        <ele>418</ele>
      </trkpt>
      <trkpt lat="43.52654" lon="2.40649">
        <ele>421.2</ele>
      </trkpt>
      <trkpt lat="43.52674" lon="2.40651">
        <ele>421.9</ele>
      </trkpt>
      <trkpt lat="43.52848" lon="2.40641">
        <ele>447.3</ele>
      </trkpt>
      <trkpt lat="43.52856" lon="2.40636">
        <ele>448.1</ele>
      </trkpt>
      <trkpt lat="43.52861" lon="2.4062">
        <ele>449</ele>
      </trkpt>
      <trkpt lat="43.52862" lon="2.40596">
        <ele>449.9</ele>
      </trkpt>
      <trkpt lat="43.52856" lon="2.40554">
        <ele>450.3</ele>
      </trkpt>
      <trkpt lat="43.52855" lon="2.40535">
        <ele>450.3</ele>
      </trkpt>
      <trkpt lat="43.52858" lon="2.40515">
        <ele>450.7</ele>
      </trkpt>
      <trkpt lat="43.52864" lon="2.40499">
        <ele>451.2</ele>
      </trkpt>
      <trkpt lat="43.52895" lon="2.40475">
        <ele>453.4</ele>
      </trkpt>
      <trkpt lat="43.52922" lon="2.40455">
        <ele>455.6</ele>
      </trkpt>
      <trkpt lat="43.52926" lon="2.40461">
        <ele>455.6</ele>
      </trkpt>
      <trkpt lat="43.52949" lon="2.40491">
        <ele>456.1</ele>
      </trkpt>
      <trkpt lat="43.52963" lon="2.4051">
        <ele>456.6</ele>
      </trkpt>
      <trkpt lat="43.53003" lon="2.40576">
        <ele>459</ele>
      </trkpt>
      <trkpt lat="43.53035" lon="2.4065">
        <ele>459.1</ele>
      </trkpt>
      <trkpt lat="43.53049" lon="2.40677">
        <ele>460.3</ele>
      </trkpt>
      <trkpt lat="43.5306" lon="2.40691">
        <ele>461.5</ele>
      </trkpt>
      <trkpt lat="43.53074" lon="2.40701">
        <ele>463</ele>
      </trkpt>
      <trkpt lat="43.53106" lon="2.40723">
        <ele>466.1</ele>
      </trkpt>
      <trkpt lat="43.5318" lon="2.40766">
        <ele>472.5</ele>
      </trkpt>
      <trkpt lat="43.53187" lon="2.40769">
        <ele>472.8</ele>
      </trkpt>
      <trkpt lat="43.53191" lon="2.40765">
        <ele>472.8</ele>
      </trkpt>
      <trkpt lat="43.53193" lon="2.40771">
        <ele>473</ele>
      </trkpt>
      <trkpt lat="43.53211" lon="2.40792">
        <ele>473.8</ele>
      </trkpt>
      <trkpt lat="43.53312" lon="2.40829">
        <ele>477.5</ele>
      </trkpt>
      <trkpt lat="43.53352" lon="2.40847">
        <ele>479.6</ele>
      </trkpt>
      <trkpt lat="43.53406" lon="2.40884">
        <ele>483.5</ele>
      </trkpt>
      <trkpt lat="43.53436" lon="2.40908">
        <ele>485.8</ele>
      </trkpt>
      <trkpt lat="43.53461" lon="2.40937">
        <ele>488.5</ele>
      </trkpt>
      <trkpt lat="43.53502" lon="2.40964">
        <ele>491.3</ele>
      </trkpt>
      <trkpt lat="43.53581" lon="2.41025">
        <ele>499.1</ele>
      </trkpt>
      <trkpt lat="43.5359" lon="2.41029">
        <ele>499.9</ele>
      </trkpt>
      <trkpt lat="43.53625" lon="2.41043">
        <ele>503.5</ele>
      </trkpt>
      <trkpt lat="43.53654" lon="2.41054">
        <ele>506.9</ele>
      </trkpt>
      <trkpt lat="43.53914" lon="2.41256">
        <ele>530.8</ele>
      </trkpt>
      <trkpt lat="43.53933" lon="2.41275">
        <ele>531.7</ele>
      </trkpt>
      <trkpt lat="43.53949" lon="2.41299">
        <ele>532.6</ele>
      </trkpt>
      <trkpt lat="43.53961" lon="2.41323">
        <ele>533.5</ele>
      </trkpt>
      <trkpt lat="43.53978" lon="2.41355">
        <ele>535.3</ele>
      </trkpt>
      <trkpt lat="43.54004" lon="2.41401">
        <ele>538.8</ele>
      </trkpt>
      <trkpt lat="43.54026" lon="2.41428">
        <ele>541.8</ele>
      </trkpt>
      <trkpt lat="43.54089" lon="2.41488">
        <ele>550</ele>
      </trkpt>
      <trkpt lat="43.54097" lon="2.41498">
        <ele>550.9</ele>
      </trkpt>
      <trkpt lat="43.54124" lon="2.41532">
        <ele>554.7</ele>
      </trkpt>
      <trkpt lat="43.54176" lon="2.41604">
        <ele>561.5</ele>
      </trkpt>
      <trkpt lat="43.54197" lon="2.41639">
        <ele>562.6</ele>
      </trkpt>
      <trkpt lat="43.54211" lon="2.41665">
        <ele>563.5</ele>
      </trkpt>
      <trkpt lat="43.54237" lon="2.41728">
        <ele>566.6</ele>
      </trkpt>
      <trkpt lat="43.54248" lon="2.41747">
        <ele>567.8</ele>
      </trkpt>
      <trkpt lat="43.54326" lon="2.41853">
        <ele>576.6</ele>
      </trkpt>
      <trkpt lat="43.54421" lon="2.41957">
        <ele>579.2</ele>
      </trkpt>
      <trkpt lat="43.54508" lon="2.42043">
        <ele>581.1</ele>
      </trkpt>
      <trkpt lat="43.54552" lon="2.42088">
        <ele>581.9</ele>
      </trkpt>
      <trkpt lat="43.54578" lon="2.42097">
        <ele>582.8</ele>
      </trkpt>
      <trkpt lat="43.54608" lon="2.42121">
        <ele>583.6</ele>
      </trkpt>
      <trkpt lat="43.54655" lon="2.42156">
        <ele>585.4</ele>
      </trkpt>
      <trkpt lat="43.54869" lon="2.42326">
        <ele>599.8</ele>
      </trkpt>
      <trkpt lat="43.54939" lon="2.42377">
        <ele>604.9</ele>
      </trkpt>
      <trkpt lat="43.55023" lon="2.42446">
        <ele>608.7</ele>
      </trkpt>
      <trkpt lat="43.55085" lon="2.42497">
        <ele>611.9</ele>
      </trkpt>
      <trkpt lat="43.55166" lon="2.42558">
        <ele>615.4</ele>
      </trkpt>
      <trkpt lat="43.55265" lon="2.42646">
        <ele>621.5</ele>
      </trkpt>
      <trkpt lat="43.55277" lon="2.4266">
        <ele>621.5</ele>
      </trkpt>
      <trkpt lat="43.55282" lon="2.42666">
        <ele>621.4</ele>
      </trkpt>
      <trkpt lat="43.55303" lon="2.4268">
        <ele>621.2</ele>
      </trkpt>
      <trkpt lat="43.55325" lon="2.4269">
        <ele>621.3</ele>
      </trkpt>
      <trkpt lat="43.55382" lon="2.42708">
        <ele>624.5</ele>
      </trkpt>
      <trkpt lat="43.55396" lon="2.42715">
        <ele>625.5</ele>
      </trkpt>
      <trkpt lat="43.55407" lon="2.42724">
        <ele>626.3</ele>
      </trkpt>
      <trkpt lat="43.55421" lon="2.4274">
        <ele>627.3</ele>
      </trkpt>
      <trkpt lat="43.5543" lon="2.42751">
        <ele>627.8</ele>
      </trkpt>
      <trkpt lat="43.5547" lon="2.42794">
        <ele>629.3</ele>
      </trkpt>
      <trkpt lat="43.55516" lon="2.42841">
        <ele>631.1</ele>
      </trkpt>
      <trkpt lat="43.55572" lon="2.42891">
        <ele>634.5</ele>
      </trkpt>
      <trkpt lat="43.55693" lon="2.42997">
        <ele>644.2</ele>
      </trkpt>
      <trkpt lat="43.55747" lon="2.43062">
        <ele>645.3</ele>
      </trkpt>
      <trkpt lat="43.55782" lon="2.43096">
        <ele>647.6</ele>
      </trkpt>
      <trkpt lat="43.55784" lon="2.43098">
        <ele>647.8</ele>
      </trkpt>
      <trkpt lat="43.55792" lon="2.4311">
        <ele>648.7</ele>
      </trkpt>
      <trkpt lat="43.558" lon="2.43127">
        <ele>649.6</ele>
      </trkpt>
      <trkpt lat="43.558" lon="2.43123">
        <ele>649.6</ele>
      </trkpt>
      <trkpt lat="43.55804" lon="2.43136">
        <ele>649.6</ele>
      </trkpt>
      <trkpt lat="43.55777" lon="2.43162">
        <ele>648.6</ele>
      </trkpt>
      <trkpt lat="43.55752" lon="2.43192">
        <ele>649.2</ele>
      </trkpt>
      <trkpt lat="43.55739" lon="2.4321">
        <ele>647.9</ele>
      </trkpt>
      <trkpt lat="43.55727" lon="2.43233">
        <ele>648.4</ele>
      </trkpt>
      <trkpt lat="43.55714" lon="2.43234">
        <ele>648.4</ele>
      </trkpt>
      <trkpt lat="43.557" lon="2.43229">
        <ele>648.5</ele>
      </trkpt>
      <trkpt lat="43.55639" lon="2.43192">
        <ele>647.5</ele>
      </trkpt>
      <trkpt lat="43.55624" lon="2.43186">
        <ele>647.7</ele>
      </trkpt>
      <trkpt lat="43.55611" lon="2.43183">
        <ele>647.8</ele>
      </trkpt>
      <trkpt lat="43.55575" lon="2.43192">
        <ele>647.8</ele>
      </trkpt>
      <trkpt lat="43.55568" lon="2.43192">
        <ele>647.7</ele>
      </trkpt>
      <trkpt lat="43.55525" lon="2.43195">
        <ele>647.1</ele>
      </trkpt>
      <trkpt lat="43.55454" lon="2.43208">
        <ele>642.6</ele>
      </trkpt>
      <trkpt lat="43.55373" lon="2.43185">
        <ele>638.1</ele>
      </trkpt>
      <trkpt lat="43.55341" lon="2.43173">
        <ele>636.2</ele>
      </trkpt>
      <trkpt lat="43.55324" lon="2.43156">
        <ele>631.7</ele>
      </trkpt>
      <trkpt lat="43.55296" lon="2.43143">
        <ele>628.2</ele>
      </trkpt>
      <trkpt lat="43.55219" lon="2.43099">
        <ele>618.3</ele>
      </trkpt>
      <trkpt lat="43.55209" lon="2.43097">
        <ele>617.8</ele>
      </trkpt>
      <trkpt lat="43.55187" lon="2.43132">
        <ele>617.7</ele>
      </trkpt>
      <trkpt lat="43.55168" lon="2.4315">
        <ele>617.1</ele>
      </trkpt>
      <trkpt lat="43.55141" lon="2.43168">
        <ele>618</ele>
      </trkpt>
      <trkpt lat="43.55129" lon="2.43169">
        <ele>618.5</ele>
      </trkpt>
      <trkpt lat="43.55129" lon="2.43169">
        <ele>617.5</ele>
      </trkpt>
      <trkpt lat="43.5513" lon="2.43173">
        <ele>617.6</ele>
      </trkpt>
      <trkpt lat="43.55134" lon="2.43209">
        <ele>619</ele>
      </trkpt>
      <trkpt lat="43.55146" lon="2.43246">
        <ele>620.3</ele>
      </trkpt>
      <trkpt lat="43.55153" lon="2.4326">
        <ele>620.9</ele>
      </trkpt>
      <trkpt lat="43.55161" lon="2.43278">
        <ele>621.8</ele>
      </trkpt>
      <trkpt lat="43.55169" lon="2.43294">
        <ele>622.8</ele>
      </trkpt>
      <trkpt lat="43.55174" lon="2.43304">
        <ele>623.9</ele>
      </trkpt>
      <trkpt lat="43.55179" lon="2.4332">
        <ele>625.2</ele>
      </trkpt>
      <trkpt lat="43.55179" lon="2.43341">
        <ele>626.4</ele>
      </trkpt>
      <trkpt lat="43.55173" lon="2.43371">
        <ele>627.4</ele>
      </trkpt>
      <trkpt lat="43.55168" lon="2.43382">
        <ele>627.4</ele>
      </trkpt>
      <trkpt lat="43.5516" lon="2.43396">
        <ele>628</ele>
      </trkpt>
      <trkpt lat="43.5515" lon="2.43417">
        <ele>628.8</ele>
      </trkpt>
      <trkpt lat="43.55147" lon="2.43423">
        <ele>629.2</ele>
      </trkpt>
      <trkpt lat="43.5514" lon="2.43434">
        <ele>630</ele>
      </trkpt>
      <trkpt lat="43.55134" lon="2.43441">
        <ele>630.3</ele>
      </trkpt>
      <trkpt lat="43.5513" lon="2.43443">
        <ele>630.4</ele>
      </trkpt>
      <trkpt lat="43.55125" lon="2.43442">
        <ele>630.3</ele>
      </trkpt>
      <trkpt lat="43.5512" lon="2.43442">
        <ele>630.3</ele>
      </trkpt>
      <trkpt lat="43.55113" lon="2.43443">
        <ele>630.3</ele>
      </trkpt>
      <trkpt lat="43.55109" lon="2.43456">
        <ele>631.1</ele>
      </trkpt>
      <trkpt lat="43.55105" lon="2.43482">
        <ele>633</ele>
      </trkpt>
      <trkpt lat="43.55101" lon="2.43502">
        <ele>634.4</ele>
      </trkpt>
      <trkpt lat="43.55099" lon="2.43512">
        <ele>635.5</ele>
      </trkpt>
      <trkpt lat="43.55094" lon="2.43522">
        <ele>636.3</ele>
      </trkpt>
      <trkpt lat="43.55077" lon="2.43526">
        <ele>636.4</ele>
      </trkpt>
      <trkpt lat="43.55067" lon="2.43528">
        <ele>636.6</ele>
      </trkpt>
      <trkpt lat="43.55046" lon="2.43532">
        <ele>636.9</ele>
      </trkpt>
      <trkpt lat="43.55037" lon="2.43534">
        <ele>636.9</ele>
      </trkpt>
      <trkpt lat="43.5502" lon="2.43543">
        <ele>637.3</ele>
      </trkpt>
      <trkpt lat="43.54995" lon="2.43556">
        <ele>637.5</ele>
      </trkpt>
      <trkpt lat="43.54959" lon="2.43571">
        <ele>636.8</ele>
      </trkpt>
      <trkpt lat="43.54935" lon="2.43578">
        <ele>636.4</ele>
      </trkpt>
      <trkpt lat="43.54924" lon="2.43585">
        <ele>636.3</ele>
      </trkpt>
      <trkpt lat="43.54918" lon="2.43588">
        <ele>636.3</ele>
      </trkpt>
      <trkpt lat="43.54913" lon="2.43591">
        <ele>636.1</ele>
      </trkpt>
      <trkpt lat="43.54906" lon="2.43582">
        <ele>635</ele>
      </trkpt>
      <trkpt lat="43.54898" lon="2.43557">
        <ele>632.7</ele>
      </trkpt>
      <trkpt lat="43.54879" lon="2.43589">
        <ele>633.2</ele>
      </trkpt>
      <trkpt lat="43.54876" lon="2.43602">
        <ele>633.9</ele>
      </trkpt>
      <trkpt lat="43.54875" lon="2.43609">
        <ele>634.3</ele>
      </trkpt>
      <trkpt lat="43.5487" lon="2.43641">
        <ele>636.4</ele>
      </trkpt>
      <trkpt lat="43.54863" lon="2.43655">
        <ele>637.2</ele>
      </trkpt>
      <trkpt lat="43.54853" lon="2.43663">
        <ele>637.4</ele>
      </trkpt>
      <trkpt lat="43.54847" lon="2.43668">
        <ele>637.5</ele>
      </trkpt>
      <trkpt lat="43.54838" lon="2.43674">
        <ele>637.7</ele>
      </trkpt>
      <trkpt lat="43.54833" lon="2.43672">
        <ele>637.4</ele>
      </trkpt>
      <trkpt lat="43.54824" lon="2.4367">
        <ele>637</ele>
      </trkpt>
      <trkpt lat="43.54815" lon="2.43667">
        <ele>636.5</ele>
      </trkpt>
      <trkpt lat="43.54804" lon="2.43668">
        <ele>636.4</ele>
      </trkpt>
      <trkpt lat="43.54754" lon="2.43688">
        <ele>636.6</ele>
      </trkpt>
      <trkpt lat="43.54748" lon="2.4369">
        <ele>636.7</ele>
      </trkpt>
      <trkpt lat="43.5471" lon="2.43704">
        <ele>638.9</ele>
      </trkpt>
      <trkpt lat="43.54702" lon="2.43707">
        <ele>639.5</ele>
      </trkpt>
      <trkpt lat="43.54695" lon="2.43708">
        <ele>639.9</ele>
      </trkpt>
      <trkpt lat="43.54679" lon="2.43754">
        <ele>647.3</ele>
      </trkpt>
      <trkpt lat="43.5465" lon="2.43814">
        <ele>650.2</ele>
      </trkpt>
      <trkpt lat="43.54639" lon="2.4383">
        <ele>649.8</ele>
      </trkpt>
      <trkpt lat="43.5463" lon="2.43838">
        <ele>648.9</ele>
      </trkpt>
      <trkpt lat="43.54617" lon="2.43843">
        <ele>647.4</ele>
      </trkpt>
      <trkpt lat="43.5461" lon="2.43842">
        <ele>646.3</ele>
      </trkpt>
      <trkpt lat="43.54598" lon="2.43841">
        <ele>644.5</ele>
      </trkpt>
      <trkpt lat="43.54594" lon="2.43839">
        <ele>644</ele>
      </trkpt>
      <trkpt lat="43.54587" lon="2.43835">
        <ele>642.7</ele>
      </trkpt>
      <trkpt lat="43.54578" lon="2.43827">
        <ele>641.1</ele>
      </trkpt>
      <trkpt lat="43.54564" lon="2.43802">
        <ele>638</ele>
      </trkpt>
      <trkpt lat="43.54557" lon="2.43792">
        <ele>636.6</ele>
      </trkpt>
      <trkpt lat="43.5455" lon="2.43786">
        <ele>635.5</ele>
      </trkpt>
      <trkpt lat="43.54539" lon="2.43781">
        <ele>634.2</ele>
      </trkpt>
      <trkpt lat="43.54524" lon="2.43777">
        <ele>632.7</ele>
      </trkpt>
      <trkpt lat="43.54496" lon="2.43773">
        <ele>630.4</ele>
      </trkpt>
      <trkpt lat="43.54493" lon="2.43772">
        <ele>630.4</ele>
      </trkpt>
      <trkpt lat="43.54421" lon="2.43781">
        <ele>630.5</ele>
      </trkpt>
      <trkpt lat="43.54409" lon="2.43784">
        <ele>630.7</ele>
      </trkpt>
      <trkpt lat="43.54401" lon="2.43788">
        <ele>631</ele>
      </trkpt>
      <trkpt lat="43.54382" lon="2.43795">
        <ele>631.7</ele>
      </trkpt>
      <trkpt lat="43.54332" lon="2.43807">
        <ele>633.4</ele>
      </trkpt>
      <trkpt lat="43.54326" lon="2.4381">
        <ele>633.5</ele>
      </trkpt>
      <trkpt lat="43.54318" lon="2.43814">
        <ele>633.6</ele>
      </trkpt>
      <trkpt lat="43.54307" lon="2.43818">
        <ele>633.5</ele>
      </trkpt>
      <trkpt lat="43.54305" lon="2.43816">
        <ele>633.3</ele>
      </trkpt>
      <trkpt lat="43.54281" lon="2.43781">
        <ele>629.1</ele>
      </trkpt>
      <trkpt lat="43.54279" lon="2.43778">
        <ele>628.7</ele>
      </trkpt>
      <trkpt lat="43.54259" lon="2.43743">
        <ele>624.8</ele>
      </trkpt>
      <trkpt lat="43.54247" lon="2.43725">
        <ele>623.2</ele>
      </trkpt>
      <trkpt lat="43.54243" lon="2.43721">
        <ele>622.8</ele>
      </trkpt>
      <trkpt lat="43.5421" lon="2.4376">
        <ele>617.990845</ele>
        <time>2014-12-14T09:29:36Z</time>
      </trkpt>
      <trkpt lat="43.54215" lon="2.43785">
        <ele>618.907043</ele>
        <time>2014-12-14T09:29:44Z</time>
      </trkpt>
      <trkpt lat="43.54217" lon="2.43808">
        <ele>620.162598</ele>
        <time>2014-12-14T09:31:24Z</time>
      </trkpt>
      <trkpt lat="43.5421" lon="2.43831">
        <ele>620.581238</ele>
        <time>2014-12-14T09:31:34Z</time>
      </trkpt>
      <trkpt lat="43.54189" lon="2.4388">
        <ele>621.800903</ele>
        <time>2014-12-14T09:31:52Z</time>
      </trkpt>
      <trkpt lat="43.54152" lon="2.43944">
        <ele>622.33783</ele>
        <time>2014-12-14T09:32:12Z</time>
      </trkpt>
      <trkpt lat="43.54139" lon="2.43973">
        <ele>622.869629</ele>
        <time>2014-12-14T09:32:21Z</time>
      </trkpt>
      <trkpt lat="43.54128" lon="2.44019">
        <ele>625.841858</ele>
        <time>2014-12-14T09:32:33Z</time>
      </trkpt>
      <trkpt lat="43.54118" lon="2.4405">
        <ele>627.442505</ele>
        <time>2014-12-14T09:32:41Z</time>
      </trkpt>
      <trkpt lat="43.54108" lon="2.44075">
        <ele>628.575012</ele>
        <time>2014-12-14T09:32:47Z</time>
      </trkpt>
      <trkpt lat="43.54092" lon="2.4409">
        <ele>627.899963</ele>
        <time>2014-12-14T09:32:53Z</time>
      </trkpt>
      <trkpt lat="43.54075" lon="2.4411">
        <ele>627.4375</ele>
        <time>2014-12-14T09:33:02Z</time>
      </trkpt>
      <trkpt lat="43.54066" lon="2.44133">
        <ele>628.3125</ele>
        <time>2014-12-14T09:33:11Z</time>
      </trkpt>
      <trkpt lat="43.54062" lon="2.44172">
        <ele>630.794983</ele>
        <time>2014-12-14T09:33:22Z</time>
      </trkpt>
      <trkpt lat="43.54061" lon="2.44196">
        <ele>632.244995</ele>
        <time>2014-12-14T09:33:29Z</time>
      </trkpt>
      <trkpt lat="43.54051" lon="2.44239">
        <ele>634.168396</ele>
        <time>2014-12-14T09:33:42Z</time>
      </trkpt>
      <trkpt lat="43.54042" lon="2.44262">
        <ele>635.020325</ele>
        <time>2014-12-14T09:33:49Z</time>
      </trkpt>
      <trkpt lat="43.5403" lon="2.44285">
        <ele>635.661987</ele>
        <time>2014-12-14T09:33:56Z</time>
      </trkpt>
      <trkpt lat="43.54019" lon="2.44304">
        <ele>636.067993</ele>
        <time>2014-12-14T09:34:02Z</time>
      </trkpt>
      <trkpt lat="43.53988" lon="2.44348">
        <ele>636.871704</ele>
        <time>2014-12-14T09:34:15Z</time>
      </trkpt>
      <trkpt lat="43.53974" lon="2.44366">
        <ele>636.122681</ele>
        <time>2014-12-14T09:34:20Z</time>
      </trkpt>
      <trkpt lat="43.53951" lon="2.44387">
        <ele>635.204163</ele>
        <time>2014-12-14T09:34:27Z</time>
      </trkpt>
      <trkpt lat="43.53937" lon="2.44406">
        <ele>635.429993</ele>
        <time>2014-12-14T09:34:31Z</time>
      </trkpt>
      <trkpt lat="43.53915" lon="2.44441">
        <ele>634.558716</ele>
        <time>2014-12-14T09:34:37Z</time>
      </trkpt>
      <trkpt lat="43.53898" lon="2.44474">
        <ele>633.835022</ele>
        <time>2014-12-14T09:34:42Z</time>
      </trkpt>
      <trkpt lat="43.53885" lon="2.44492">
        <ele>632.972473</ele>
        <time>2014-12-14T09:34:45Z</time>
      </trkpt>
      <trkpt lat="43.53873" lon="2.44511">
        <ele>632.17749</ele>
        <time>2014-12-14T09:34:48Z</time>
      </trkpt>
      <trkpt lat="43.53857" lon="2.44526">
        <ele>631.10498</ele>
        <time>2014-12-14T09:34:51Z</time>
      </trkpt>
      <trkpt lat="43.53774" lon="2.44569">
        <ele>622.1745</ele>
        <time>2014-12-14T09:35:02Z</time>
      </trkpt>
      <trkpt lat="43.53757" lon="2.44576">
        <ele>620.857361</ele>
        <time>2014-12-14T09:35:04Z</time>
      </trkpt>
      <trkpt lat="43.53735" lon="2.44579">
        <ele>620.496338</ele>
        <time>2014-12-14T09:35:07Z</time>
      </trkpt>
      <trkpt lat="43.5371" lon="2.44598">
        <ele>620.00592</ele>
        <time>2014-12-14T09:35:14Z</time>
      </trkpt>
      <trkpt lat="43.53688" lon="2.44618">
        <ele>620.147217</ele>
        <time>2014-12-14T09:35:20Z</time>
      </trkpt>
      <trkpt lat="43.53658" lon="2.44641">
        <ele>620.759888</ele>
        <time>2014-12-14T09:35:28Z</time>
      </trkpt>
      <trkpt lat="43.53559" lon="2.44748">
        <ele>620.95874</ele>
        <time>2014-12-14T09:35:54Z</time>
      </trkpt>
      <trkpt lat="43.53516" lon="2.44785">
        <ele>621.247192</ele>
        <time>2014-12-14T09:36:05Z</time>
      </trkpt>
      <trkpt lat="43.5347" lon="2.44821">
        <ele>621.490967</ele>
        <time>2014-12-14T09:36:18Z</time>
      </trkpt>
      <trkpt lat="43.53444" lon="2.44843">
        <ele>620.968079</ele>
        <time>2014-12-14T09:36:25Z</time>
      </trkpt>
      <trkpt lat="43.53424" lon="2.44846">
        <ele>620.644409</ele>
        <time>2014-12-14T09:36:30Z</time>
      </trkpt>
      <trkpt lat="43.53407" lon="2.44839">
        <ele>620.101379</ele>
        <time>2014-12-14T09:36:36Z</time>
      </trkpt>
      <trkpt lat="43.5339" lon="2.44826">
        <ele>618.94751</ele>
        <time>2014-12-14T09:36:44Z</time>
      </trkpt>
      <trkpt lat="43.53349" lon="2.44806">
        <ele>616.455017</ele>
        <time>2014-12-14T09:36:54Z</time>
      </trkpt>
      <trkpt lat="43.53312" lon="2.44783">
        <ele>614.102478</ele>
        <time>2014-12-14T09:37:00Z</time>
      </trkpt>
      <trkpt lat="43.53242" lon="2.44754">
        <ele>610.58606</ele>
        <time>2014-12-14T09:37:09Z</time>
      </trkpt>
      <trkpt lat="43.53133" lon="2.44705">
        <ele>606.942505</ele>
        <time>2014-12-14T09:37:23Z</time>
      </trkpt>
      <trkpt lat="43.53061" lon="2.44666">
        <ele>604.992249</ele>
        <time>2014-12-14T09:37:34Z</time>
      </trkpt>
      <trkpt lat="43.53047" lon="2.44664">
        <ele>604.625244</ele>
        <time>2014-12-14T09:39:21Z</time>
      </trkpt>
      <trkpt lat="43.53019" lon="2.44651">
        <ele>603.782288</ele>
        <time>2014-12-14T09:39:33Z</time>
      </trkpt>
      <trkpt lat="43.52986" lon="2.44647">
        <ele>602.013733</ele>
        <time>2014-12-14T09:43:28Z</time>
      </trkpt>
      <trkpt lat="43.52945" lon="2.44633">
        <ele>599.067505</ele>
        <time>2014-12-14T09:43:38Z</time>
      </trkpt>
      <trkpt lat="43.52925" lon="2.44624">
        <ele>596.963745</ele>
        <time>2014-12-14T09:43:42Z</time>
      </trkpt>
      <trkpt lat="43.52908" lon="2.44619">
        <ele>595.104736</ele>
        <time>2014-12-14T09:43:45Z</time>
      </trkpt>
      <trkpt lat="43.52891" lon="2.44618">
        <ele>592.727234</ele>
        <time>2014-12-14T09:43:48Z</time>
      </trkpt>
      <trkpt lat="43.52871" lon="2.4463">
        <ele>590.255432</ele>
        <time>2014-12-14T09:43:51Z</time>
      </trkpt>
      <trkpt lat="43.52853" lon="2.44649">
        <ele>588.44751</ele>
        <time>2014-12-14T09:43:54Z</time>
      </trkpt>
      <trkpt lat="43.52839" lon="2.44676">
        <ele>586.74469</ele>
        <time>2014-12-14T09:43:57Z</time>
      </trkpt>
      <trkpt lat="43.52819" lon="2.44731">
        <ele>584.674988</ele>
        <time>2014-12-14T09:44:03Z</time>
      </trkpt>
      <trkpt lat="43.52808" lon="2.44767">
        <ele>583.487488</ele>
        <time>2014-12-14T09:44:07Z</time>
      </trkpt>
      <trkpt lat="43.52802" lon="2.44794">
        <ele>583.066284</ele>
        <time>2014-12-14T09:44:10Z</time>
      </trkpt>
      <trkpt lat="43.52782" lon="2.44854">
        <ele>582.317688</ele>
        <time>2014-12-14T09:44:17Z</time>
      </trkpt>
      <trkpt lat="43.52774" lon="2.44882">
        <ele>581.824524</ele>
        <time>2014-12-14T09:44:20Z</time>
      </trkpt>
      <trkpt lat="43.52764" lon="2.44906">
        <ele>580.937134</ele>
        <time>2014-12-14T09:44:23Z</time>
      </trkpt>
      <trkpt lat="43.5275" lon="2.44925">
        <ele>579.577515</ele>
        <time>2014-12-14T09:44:26Z</time>
      </trkpt>
      <trkpt lat="43.52718" lon="2.44965">
        <ele>576.420349</ele>
        <time>2014-12-14T09:44:32Z</time>
      </trkpt>
      <trkpt lat="43.52697" lon="2.44965">
        <ele>574.164612</ele>
        <time>2014-12-14T09:44:48Z</time>
      </trkpt>
      <trkpt lat="43.52677" lon="2.44955">
        <ele>571.234985</ele>
        <time>2014-12-14T09:44:53Z</time>
      </trkpt>
      <trkpt lat="43.52662" lon="2.44938">
        <ele>568.38501</ele>
        <time>2014-12-14T09:44:56Z</time>
      </trkpt>
      <trkpt lat="43.52647" lon="2.44918">
        <ele>565.351257</ele>
        <time>2014-12-14T09:44:59Z</time>
      </trkpt>
      <trkpt lat="43.52635" lon="2.44893">
        <ele>562.323181</ele>
        <time>2014-12-14T09:45:02Z</time>
      </trkpt>
      <trkpt lat="43.52619" lon="2.44866">
        <ele>557.951233</ele>
        <time>2014-12-14T09:45:05Z</time>
      </trkpt>
      <trkpt lat="43.52605" lon="2.44851">
        <ele>554.807373</ele>
        <time>2014-12-14T09:45:07Z</time>
      </trkpt>
      <trkpt lat="43.52585" lon="2.44835">
        <ele>551.663269</ele>
        <time>2014-12-14T09:45:10Z</time>
      </trkpt>
      <trkpt lat="43.52565" lon="2.44834">
        <ele>549.596313</ele>
        <time>2014-12-14T09:45:13Z</time>
      </trkpt>
      <trkpt lat="43.52546" lon="2.44841">
        <ele>547.040344</ele>
        <time>2014-12-14T09:45:16Z</time>
      </trkpt>
      <trkpt lat="43.52527" lon="2.44829">
        <ele>546.348755</ele>
        <time>2014-12-14T09:46:58Z</time>
      </trkpt>
      <trkpt lat="43.52511" lon="2.4484">
        <ele>543.723267</ele>
        <time>2014-12-14T09:47:45Z</time>
      </trkpt>
      <trkpt lat="43.52492" lon="2.44833">
        <ele>541.882813</ele>
        <time>2014-12-14T09:47:50Z</time>
      </trkpt>
      <trkpt lat="43.52478" lon="2.44817">
        <ele>540.791748</ele>
        <time>2014-12-14T09:47:55Z</time>
      </trkpt>
      <trkpt lat="43.52463" lon="2.44791">
        <ele>539.98999</ele>
        <time>2014-12-14T09:48:05Z</time>
      </trkpt>
      <trkpt lat="43.52445" lon="2.44776">
        <ele>537.629028</ele>
        <time>2014-12-14T09:48:11Z</time>
      </trkpt>
      <trkpt lat="43.52413" lon="2.44745">
        <ele>534.372498</ele>
        <time>2014-12-14T09:48:22Z</time>
      </trkpt>
      <trkpt lat="43.52397" lon="2.44733">
        <ele>533.340027</ele>
        <time>2014-12-14T09:48:27Z</time>
      </trkpt>
      <trkpt lat="43.52378" lon="2.44729">
        <ele>531.559998</ele>
        <time>2014-12-14T09:48:31Z</time>
      </trkpt>
      <trkpt lat="43.52339" lon="2.44732">
        <ele>527.694763</ele>
        <time>2014-12-14T09:48:39Z</time>
      </trkpt>
      <trkpt lat="43.52317" lon="2.44736">
        <ele>525.953735</ele>
        <time>2014-12-14T09:48:43Z</time>
      </trkpt>
      <trkpt lat="43.52271" lon="2.44748">
        <ele>522.828796</ele>
        <time>2014-12-14T09:48:55Z</time>
      </trkpt>
      <trkpt lat="43.5226" lon="2.44766">
        <ele>522.43512</ele>
        <time>2014-12-14T09:49:01Z</time>
      </trkpt>
      <trkpt lat="43.52267" lon="2.44829">
        <ele>519.341492</ele>
        <time>2014-12-14T09:49:14Z</time>
      </trkpt>
      <trkpt lat="43.5227" lon="2.44899">
        <ele>515.46167</ele>
        <time>2014-12-14T09:49:25Z</time>
      </trkpt>
      <trkpt lat="43.5227" lon="2.44923">
        <ele>513.364136</ele>
        <time>2014-12-14T09:49:29Z</time>
      </trkpt>
      <trkpt lat="43.52267" lon="2.44949">
        <ele>510.78302</ele>
        <time>2014-12-14T09:49:33Z</time>
      </trkpt>
      <trkpt lat="43.52261" lon="2.44972">
        <ele>508.451599</ele>
        <time>2014-12-14T09:49:36Z</time>
      </trkpt>
      <trkpt lat="43.52248" lon="2.45024">
        <ele>503.799896</ele>
        <time>2014-12-14T09:49:43Z</time>
      </trkpt>
      <trkpt lat="43.52248" lon="2.4505">
        <ele>501.041992</ele>
        <time>2014-12-14T09:49:48Z</time>
      </trkpt>
      <trkpt lat="43.52264" lon="2.45057">
        <ele>501.119843</ele>
        <time>2014-12-14T09:49:56Z</time>
      </trkpt>
      <trkpt lat="43.52282" lon="2.45048">
        <ele>502.764008</ele>
        <time>2014-12-14T09:50:02Z</time>
      </trkpt>
      <trkpt lat="43.52292" lon="2.45062">
        <ele>502.554779</ele>
        <time>2014-12-14T09:50:09Z</time>
      </trkpt>
      <trkpt lat="43.52291" lon="2.4509">
        <ele>500.837341</ele>
        <time>2014-12-14T09:50:18Z</time>
      </trkpt>
      <trkpt lat="43.52285" lon="2.45128">
        <ele>499.45166</ele>
        <time>2014-12-14T09:50:28Z</time>
      </trkpt>
      <trkpt lat="43.52286" lon="2.4516">
        <ele>497.817505</ele>
        <time>2014-12-14T09:50:34Z</time>
      </trkpt>
      <trkpt lat="43.52289" lon="2.45189">
        <ele>495.662506</ele>
        <time>2014-12-14T09:50:42Z</time>
      </trkpt>
      <trkpt lat="43.52305" lon="2.45184">
        <ele>496.70874</ele>
        <time>2014-12-14T09:52:03Z</time>
      </trkpt>
      <trkpt lat="43.5232" lon="2.45176">
        <ele>498.111237</ele>
        <time>2014-12-14T09:52:18Z</time>
      </trkpt>
      <trkpt lat="43.52356" lon="2.45183">
        <ele>498.636993</ele>
        <time>2014-12-14T09:52:45Z</time>
      </trkpt>
      <trkpt lat="43.52369" lon="2.45203">
        <ele>497.987366</ele>
        <time>2014-12-14T09:52:57Z</time>
      </trkpt>
      <trkpt lat="43.52377" lon="2.45224">
        <ele>499.759613</ele>
        <time>2014-12-14T09:54:57Z</time>
      </trkpt>
      <trkpt lat="43.52386" lon="2.45246">
        <ele>501.187775</ele>
        <time>2014-12-14T09:55:07Z</time>
      </trkpt>
      <trkpt lat="43.52394" lon="2.45269">
        <ele>501.643738</ele>
        <time>2014-12-14T09:55:15Z</time>
      </trkpt>
      <trkpt lat="43.5239" lon="2.45294">
        <ele>503.796112</ele>
        <time>2014-12-14T09:55:28Z</time>
      </trkpt>
      <trkpt lat="43.52383" lon="2.45315">
        <ele>505.958588</ele>
        <time>2014-12-14T09:55:48Z</time>
      </trkpt>
      <trkpt lat="43.52372" lon="2.45333">
        <ele>508.848541</ele>
        <time>2014-12-14T09:56:02Z</time>
      </trkpt>
      <trkpt lat="43.52368" lon="2.45358">
        <ele>514.385071</ele>
        <time>2014-12-14T09:56:16Z</time>
      </trkpt>
      <trkpt lat="43.52361" lon="2.45379">
        <ele>517.240845</ele>
        <time>2014-12-14T09:56:32Z</time>
      </trkpt>
      <trkpt lat="43.52357" lon="2.45486">
        <ele>527.630737</ele>
        <time>2014-12-14T09:57:35Z</time>
      </trkpt>
      <trkpt lat="43.52354" lon="2.45511">
        <ele>528.310181</ele>
        <time>2014-12-14T09:57:50Z</time>
      </trkpt>
      <trkpt lat="43.52354" lon="2.45535">
        <ele>529.20813</ele>
        <time>2014-12-14T09:58:09Z</time>
      </trkpt>
      <trkpt lat="43.52356" lon="2.45582">
        <ele>531.342773</ele>
        <time>2014-12-14T09:58:42Z</time>
      </trkpt>
      <trkpt lat="43.52351" lon="2.45611">
        <ele>531.036804</ele>
        <time>2014-12-14T09:59:02Z</time>
      </trkpt>
      <trkpt lat="43.52349" lon="2.45636">
        <ele>531.540894</ele>
        <time>2014-12-14T09:59:08Z</time>
      </trkpt>
      <trkpt lat="43.52349" lon="2.45688">
        <ele>534.048279</ele>
        <time>2014-12-14T09:59:20Z</time>
      </trkpt>
      <trkpt lat="43.52346" lon="2.45713">
        <ele>534.722656</ele>
        <time>2014-12-14T09:59:26Z</time>
      </trkpt>
      <trkpt lat="43.52326" lon="2.4573">
        <ele>533.059998</ele>
        <time>2014-12-14T09:59:35Z</time>
      </trkpt>
      <trkpt lat="43.52314" lon="2.45739">
        <ele>535.12439</ele>
        <time>2014-12-14T09:59:53Z</time>
      </trkpt>
      <trkpt lat="43.52297" lon="2.45755">
        <ele>537.960205</ele>
        <time>2014-12-14T10:00:15Z</time>
      </trkpt>
      <trkpt lat="43.5229" lon="2.4578">
        <ele>539.774841</ele>
        <time>2014-12-14T10:00:36Z</time>
      </trkpt>
      <trkpt lat="43.52289" lon="2.45817">
        <ele>541.287354</ele>
        <time>2014-12-14T10:00:59Z</time>
      </trkpt>
      <trkpt lat="43.52292" lon="2.45852">
        <ele>542.957031</ele>
        <time>2014-12-14T10:01:09Z</time>
      </trkpt>
      <trkpt lat="43.52291" lon="2.45905">
        <ele>546.468079</ele>
        <time>2014-12-14T10:01:31Z</time>
      </trkpt>
      <trkpt lat="43.5229" lon="2.45928">
        <ele>548.45874</ele>
        <time>2014-12-14T10:01:42Z</time>
      </trkpt>
      <trkpt lat="43.5229" lon="2.45954">
        <ele>550.42688</ele>
        <time>2014-12-14T10:01:56Z</time>
      </trkpt>
      <trkpt lat="43.52293" lon="2.45979">
        <ele>551.869141</ele>
        <time>2014-12-14T10:02:07Z</time>
      </trkpt>
      <trkpt lat="43.52296" lon="2.4603">
        <ele>555.10498</ele>
        <time>2014-12-14T10:02:27Z</time>
      </trkpt>
      <trkpt lat="43.52301" lon="2.4606">
        <ele>557.304993</ele>
        <time>2014-12-14T10:02:37Z</time>
      </trkpt>
      <trkpt lat="43.52309" lon="2.46081">
        <ele>559.319824</ele>
        <time>2014-12-14T10:02:46Z</time>
      </trkpt>
      <trkpt lat="43.52319" lon="2.46137">
        <ele>564.36499</ele>
        <time>2014-12-14T10:03:07Z</time>
      </trkpt>
      <trkpt lat="43.52325" lon="2.46168">
        <ele>566.35498</ele>
        <time>2014-12-14T10:03:18Z</time>
      </trkpt>
      <trkpt lat="43.52339" lon="2.46197">
        <ele>568.226501</ele>
        <time>2014-12-14T10:03:30Z</time>
      </trkpt>
      <trkpt lat="43.52337" lon="2.46223">
        <ele>567.562561</ele>
        <time>2014-12-14T10:03:41Z</time>
      </trkpt>
      <trkpt lat="43.52309" lon="2.46243">
        <ele>566.078247</ele>
        <time>2014-12-14T10:03:53Z</time>
      </trkpt>
      <trkpt lat="43.52289" lon="2.46271">
        <ele>562.693848</ele>
        <time>2014-12-14T10:04:03Z</time>
      </trkpt>
      <trkpt lat="43.52276" lon="2.46287">
        <ele>559.713562</ele>
        <time>2014-12-14T10:04:08Z</time>
      </trkpt>
      <trkpt lat="43.5226" lon="2.46294">
        <ele>557.863892</ele>
        <time>2014-12-14T10:04:13Z</time>
      </trkpt>
      <trkpt lat="43.52241" lon="2.46298">
        <ele>556.188843</ele>
        <time>2014-12-14T10:04:18Z</time>
      </trkpt>
      <trkpt lat="43.52221" lon="2.46297">
        <ele>554.663086</ele>
        <time>2014-12-14T10:04:23Z</time>
      </trkpt>
      <trkpt lat="43.52202" lon="2.46286">
        <ele>554.280396</ele>
        <time>2014-12-14T10:04:29Z</time>
      </trkpt>
      <trkpt lat="43.52191" lon="2.46265">
        <ele>556.440125</ele>
        <time>2014-12-14T10:04:33Z</time>
      </trkpt>
      <trkpt lat="43.52183" lon="2.46239">
        <ele>554.526672</ele>
        <time>2014-12-14T10:04:39Z</time>
      </trkpt>
      <trkpt lat="43.52179" lon="2.46212">
        <ele>552.618164</ele>
        <time>2014-12-14T10:04:43Z</time>
      </trkpt>
      <trkpt lat="43.52176" lon="2.46188">
        <ele>551.653625</ele>
        <time>2014-12-14T10:04:48Z</time>
      </trkpt>
      <trkpt lat="43.52174" lon="2.46134">
        <ele>551.264282</ele>
        <time>2014-12-14T10:04:58Z</time>
      </trkpt>
      <trkpt lat="43.52169" lon="2.46106">
        <ele>548.508484</ele>
        <time>2014-12-14T10:05:02Z</time>
      </trkpt>
      <trkpt lat="43.52157" lon="2.46082">
        <ele>544.229736</ele>
        <time>2014-12-14T10:05:06Z</time>
      </trkpt>
      <trkpt lat="43.52146" lon="2.46064">
        <ele>540.885925</ele>
        <time>2014-12-14T10:05:09Z</time>
      </trkpt>
      <trkpt lat="43.52133" lon="2.46046">
        <ele>534.548218</ele>
        <time>2014-12-14T10:05:12Z</time>
      </trkpt>
      <trkpt lat="43.52125" lon="2.46023">
        <ele>530.848328</ele>
        <time>2014-12-14T10:05:15Z</time>
      </trkpt>
      <trkpt lat="43.52121" lon="2.45992">
        <ele>529.177429</ele>
        <time>2014-12-14T10:05:19Z</time>
      </trkpt>
      <trkpt lat="43.52119" lon="2.45964">
        <ele>528.067261</ele>
        <time>2014-12-14T10:05:23Z</time>
      </trkpt>
      <trkpt lat="43.52123" lon="2.45891">
        <ele>530.954834</ele>
        <time>2014-12-14T10:06:58Z</time>
      </trkpt>
      <trkpt lat="43.52114" lon="2.45863">
        <ele>529.421631</ele>
        <time>2014-12-14T10:07:03Z</time>
      </trkpt>
      <trkpt lat="43.52104" lon="2.45823">
        <ele>529.788757</ele>
        <time>2014-12-14T10:07:12Z</time>
      </trkpt>
      <trkpt lat="43.52101" lon="2.45798">
        <ele>529.063721</ele>
        <time>2014-12-14T10:07:16Z</time>
      </trkpt>
      <trkpt lat="43.52093" lon="2.45771">
        <ele>526.279053</ele>
        <time>2014-12-14T10:07:20Z</time>
      </trkpt>
      <trkpt lat="43.52087" lon="2.45744">
        <ele>524.678955</ele>
        <time>2014-12-14T10:07:24Z</time>
      </trkpt>
      <trkpt lat="43.5208" lon="2.45722">
        <ele>522.585693</ele>
        <time>2014-12-14T10:07:28Z</time>
      </trkpt>
      <trkpt lat="43.52067" lon="2.45702">
        <ele>518.870056</ele>
        <time>2014-12-14T10:07:35Z</time>
      </trkpt>
      <trkpt lat="43.52052" lon="2.45683">
        <ele>513.919983</ele>
        <time>2014-12-14T10:07:42Z</time>
      </trkpt>
      <trkpt lat="43.5204" lon="2.45665">
        <ele>509.820007</ele>
        <time>2014-12-14T10:07:48Z</time>
      </trkpt>
      <trkpt lat="43.52021" lon="2.4562">
        <ele>504.548615</ele>
        <time>2014-12-14T10:08:05Z</time>
      </trkpt>
      <trkpt lat="43.52013" lon="2.45598">
        <ele>502.57959</ele>
        <time>2014-12-14T10:08:12Z</time>
      </trkpt>
      <trkpt lat="43.52007" lon="2.45573">
        <ele>501.720001</ele>
        <time>2014-12-14T10:08:17Z</time>
      </trkpt>
      <trkpt lat="43.51993" lon="2.45556">
        <ele>495.872498</ele>
        <time>2014-12-14T10:08:22Z</time>
      </trkpt>
      <trkpt lat="43.51984" lon="2.45536">
        <ele>492.309998</ele>
        <time>2014-12-14T10:08:27Z</time>
      </trkpt>
      <trkpt lat="43.51968" lon="2.45488">
        <ele>486.16629</ele>
        <time>2014-12-14T10:08:39Z</time>
      </trkpt>
      <trkpt lat="43.5196" lon="2.45467">
        <ele>483.290619</ele>
        <time>2014-12-14T10:08:45Z</time>
      </trkpt>
      <trkpt lat="43.5195" lon="2.45415">
        <ele>480.256805</ele>
        <time>2014-12-14T10:08:58Z</time>
      </trkpt>
      <trkpt lat="43.51949" lon="2.45389">
        <ele>479.893799</ele>
        <time>2014-12-14T10:09:03Z</time>
      </trkpt>
      <trkpt lat="43.51942" lon="2.45379">
        <ele>477.773438</ele>
        <time>2014-12-14T10:09:11Z</time>
      </trkpt>
      <trkpt lat="43.51926" lon="2.45426">
        <ele>470.938904</ele>
        <time>2014-12-14T10:09:27Z</time>
      </trkpt>
      <trkpt lat="43.51924" lon="2.45454">
        <ele>468.792358</ele>
        <time>2014-12-14T10:09:33Z</time>
      </trkpt>
      <trkpt lat="43.51913" lon="2.45454">
        <ele>462.27005</ele>
        <time>2014-12-14T10:09:41Z</time>
      </trkpt>
      <trkpt lat="43.51883" lon="2.45387">
        <ele>451.969574</ele>
        <time>2014-12-14T10:09:56Z</time>
      </trkpt>
      <trkpt lat="43.51874" lon="2.45363">
        <ele>449.465149</ele>
        <time>2014-12-14T10:10:08Z</time>
      </trkpt>
      <trkpt lat="43.51862" lon="2.45316">
        <ele>442.842041</ele>
        <time>2014-12-14T10:10:14Z</time>
      </trkpt>
      <trkpt lat="43.51858" lon="2.45292">
        <ele>439.117035</ele>
        <time>2014-12-14T10:10:17Z</time>
      </trkpt>
      <trkpt lat="43.51858" lon="2.45238">
        <ele>432.775757</ele>
        <time>2014-12-14T10:10:29Z</time>
      </trkpt>
      <trkpt lat="43.51867" lon="2.45217">
        <ele>434.606964</ele>
        <time>2014-12-14T10:10:34Z</time>
      </trkpt>
      <trkpt lat="43.51896" lon="2.45179">
        <ele>436.208496</ele>
        <time>2014-12-14T10:10:47Z</time>
      </trkpt>
      <trkpt lat="43.51906" lon="2.45144">
        <ele>427.828888</ele>
        <time>2014-12-14T10:10:55Z</time>
      </trkpt>
      <trkpt lat="43.51921" lon="2.45098">
        <ele>426.6091</ele>
        <time>2014-12-14T10:11:05Z</time>
      </trkpt>
      <trkpt lat="43.51924" lon="2.45076">
        <ele>424.691254</ele>
        <time>2014-12-14T10:11:13Z</time>
      </trkpt>
      <trkpt lat="43.51909" lon="2.45079">
        <ele>419.093628</ele>
        <time>2014-12-14T10:11:32Z</time>
      </trkpt>
      <trkpt lat="43.51884" lon="2.45067">
        <ele>414.978912</ele>
        <time>2014-12-14T10:11:43Z</time>
      </trkpt>
      <trkpt lat="43.51861" lon="2.45042">
        <ele>414.204681</ele>
        <time>2014-12-14T10:11:54Z</time>
      </trkpt>
      <trkpt lat="43.51846" lon="2.44991">
        <ele>418.099365</ele>
        <time>2014-12-14T10:12:07Z</time>
      </trkpt>
      <trkpt lat="43.51839" lon="2.44961">
        <ele>420.115509</ele>
        <time>2014-12-14T10:12:14Z</time>
      </trkpt>
      <trkpt lat="43.51828" lon="2.4493">
        <ele>424.987183</ele>
        <time>2014-12-14T10:12:22Z</time>
      </trkpt>
      <trkpt lat="43.51816" lon="2.44904">
        <ele>427.552124</ele>
        <time>2014-12-14T10:12:29Z</time>
      </trkpt>
      <trkpt lat="43.51804" lon="2.44884">
        <ele>429.391937</ele>
        <time>2014-12-14T10:12:35Z</time>
      </trkpt>
      <trkpt lat="43.51757" lon="2.44855">
        <ele>428.046173</ele>
        <time>2014-12-14T10:12:52Z</time>
      </trkpt>
      <trkpt lat="43.51734" lon="2.44866">
        <ele>415.62384</ele>
        <time>2014-12-14T10:12:59Z</time>
      </trkpt>
      <trkpt lat="43.51721" lon="2.44852">
        <ele>414.525543</ele>
        <time>2014-12-14T10:13:16Z</time>
      </trkpt>
      <trkpt lat="43.5171" lon="2.44881">
        <ele>408.002228</ele>
        <time>2014-12-14T10:13:22Z</time>
      </trkpt>
      <trkpt lat="43.51698" lon="2.44902">
        <ele>405.680634</ele>
        <time>2014-12-14T10:13:26Z</time>
      </trkpt>
      <trkpt lat="43.51678" lon="2.4491">
        <ele>396.778809</ele>
        <time>2014-12-14T10:13:30Z</time>
      </trkpt>
      <trkpt lat="43.51688" lon="2.44905">
        <ele>401.523743</ele>
        <time>2014-12-14T10:16:04Z</time>
      </trkpt>
      <trkpt lat="43.51713" lon="2.44876">
        <ele>408.840393</ele>
        <time>2014-12-14T10:16:16Z</time>
      </trkpt>
      <trkpt lat="43.5172" lon="2.44853">
        <ele>413.97403</ele>
        <time>2014-12-14T10:16:23Z</time>
      </trkpt>
      <trkpt lat="43.5172" lon="2.44829">
        <ele>419.029663</ele>
        <time>2014-12-14T10:16:29Z</time>
      </trkpt>
      <trkpt lat="43.51714" lon="2.44806">
        <ele>424.30069</ele>
        <time>2014-12-14T10:16:35Z</time>
      </trkpt>
      <trkpt lat="43.51701" lon="2.44783">
        <ele>425.648102</ele>
        <time>2014-12-14T10:16:42Z</time>
      </trkpt>
      <trkpt lat="43.51678" lon="2.44745">
        <ele>422.454987</ele>
        <time>2014-12-14T10:16:54Z</time>
      </trkpt>
      <trkpt lat="43.51674" lon="2.44721">
        <ele>428.829071</ele>
        <time>2014-12-14T10:17:01Z</time>
      </trkpt>
      <trkpt lat="43.51666" lon="2.44692">
        <ele>432.636322</ele>
        <time>2014-12-14T10:17:12Z</time>
      </trkpt>
      <trkpt lat="43.51654" lon="2.44657">
        <ele>435.93692</ele>
        <time>2014-12-14T10:17:24Z</time>
      </trkpt>
      <trkpt lat="43.51642" lon="2.44639">
        <ele>435.848938</ele>
        <time>2014-12-14T10:17:31Z</time>
      </trkpt>
      <trkpt lat="43.51627" lon="2.44626">
        <ele>433.029266</ele>
        <time>2014-12-14T10:17:38Z</time>
      </trkpt>
      <trkpt lat="43.5161" lon="2.44623">
        <ele>426.859772</ele>
        <time>2014-12-14T10:17:45Z</time>
      </trkpt>
      <trkpt lat="43.51593" lon="2.44616">
        <ele>423.341858</ele>
        <time>2014-12-14T10:18:03Z</time>
      </trkpt>
      <trkpt lat="43.51593" lon="2.4459">
        <ele>430.45874</ele>
        <time>2014-12-14T10:18:11Z</time>
      </trkpt>
      <trkpt lat="43.51605" lon="2.44569">
        <ele>435.769989</ele>
        <time>2014-12-14T10:18:18Z</time>
      </trkpt>
      <trkpt lat="43.51614" lon="2.44547">
        <ele>438.88559</ele>
        <time>2014-12-14T10:18:25Z</time>
      </trkpt>
      <trkpt lat="43.51639" lon="2.445">
        <ele>446.934052</ele>
        <time>2014-12-14T10:18:44Z</time>
      </trkpt>
      <trkpt lat="43.51646" lon="2.44471">
        <ele>448.165619</ele>
        <time>2014-12-14T10:18:54Z</time>
      </trkpt>
      <trkpt lat="43.51649" lon="2.44432">
        <ele>448.040009</ele>
        <time>2014-12-14T10:19:06Z</time>
      </trkpt>
      <trkpt lat="43.51652" lon="2.44407">
        <ele>448.69751</ele>
        <time>2014-12-14T10:19:13Z</time>
      </trkpt>
      <trkpt lat="43.51657" lon="2.44379">
        <ele>448.503967</ele>
        <time>2014-12-14T10:19:23Z</time>
      </trkpt>
      <trkpt lat="43.51666" lon="2.44355">
        <ele>449.672485</ele>
        <time>2014-12-14T10:19:32Z</time>
      </trkpt>
      <trkpt lat="43.51677" lon="2.44336">
        <ele>451.282806</ele>
        <time>2014-12-14T10:19:40Z</time>
      </trkpt>
      <trkpt lat="43.51692" lon="2.44317">
        <ele>452.297211</ele>
        <time>2014-12-14T10:19:48Z</time>
      </trkpt>
      <trkpt lat="43.51708" lon="2.44308">
        <ele>453.274078</ele>
        <time>2014-12-14T10:19:55Z</time>
      </trkpt>
      <trkpt lat="43.51725" lon="2.44318">
        <ele>456.419891</ele>
        <time>2014-12-14T10:20:03Z</time>
      </trkpt>
      <trkpt lat="43.51737" lon="2.44337">
        <ele>460.35495</ele>
        <time>2014-12-14T10:20:10Z</time>
      </trkpt>
      <trkpt lat="43.5175" lon="2.44366">
        <ele>464.994232</ele>
        <time>2014-12-14T10:20:20Z</time>
      </trkpt>
      <trkpt lat="43.51759" lon="2.44393">
        <ele>468.992981</ele>
        <time>2014-12-14T10:20:30Z</time>
      </trkpt>
      <trkpt lat="43.51775" lon="2.44421">
        <ele>472.783356</ele>
        <time>2014-12-14T10:20:40Z</time>
      </trkpt>
      <trkpt lat="43.51796" lon="2.44447">
        <ele>476.096283</ele>
        <time>2014-12-14T10:20:51Z</time>
      </trkpt>
      <trkpt lat="43.51815" lon="2.44443">
        <ele>476.690979</ele>
        <time>2014-12-14T10:20:57Z</time>
      </trkpt>
      <trkpt lat="43.51828" lon="2.44425">
        <ele>476.204193</ele>
        <time>2014-12-14T10:21:03Z</time>
      </trkpt>
      <trkpt lat="43.51854" lon="2.44387">
        <ele>475.501892</ele>
        <time>2014-12-14T10:21:17Z</time>
      </trkpt>
      <trkpt lat="43.51871" lon="2.44368">
        <ele>476.13678</ele>
        <time>2014-12-14T10:21:25Z</time>
      </trkpt>
      <trkpt lat="43.51886" lon="2.44354">
        <ele>477.302582</ele>
        <time>2014-12-14T10:21:32Z</time>
      </trkpt>
      <trkpt lat="43.51903" lon="2.44342">
        <ele>479.278107</ele>
        <time>2014-12-14T10:21:39Z</time>
      </trkpt>
      <trkpt lat="43.51923" lon="2.44334">
        <ele>481.352509</ele>
        <time>2014-12-14T10:21:47Z</time>
      </trkpt>
      <trkpt lat="43.51988" lon="2.44317">
        <ele>484.897491</ele>
        <time>2014-12-14T10:22:12Z</time>
      </trkpt>
      <trkpt lat="43.52081" lon="2.44281">
        <ele>491.359741</ele>
        <time>2014-12-14T10:22:51Z</time>
      </trkpt>
      <trkpt lat="43.52101" lon="2.44272">
        <ele>493.004089</ele>
        <time>2014-12-14T10:22:59Z</time>
      </trkpt>
      <trkpt lat="43.52124" lon="2.44257">
        <ele>494.705017</ele>
        <time>2014-12-14T10:23:12Z</time>
      </trkpt>
      <trkpt lat="43.52133" lon="2.44234">
        <ele>493.700012</ele>
        <time>2014-12-14T10:23:24Z</time>
      </trkpt>
      <trkpt lat="43.52123" lon="2.44212">
        <ele>490.213531</ele>
        <time>2014-12-14T10:23:33Z</time>
      </trkpt>
      <trkpt lat="43.52108" lon="2.44165">
        <ele>484.285645</ele>
        <time>2014-12-14T10:23:48Z</time>
      </trkpt>
      <trkpt lat="43.52099" lon="2.44146">
        <ele>481.446533</ele>
        <time>2014-12-14T10:23:57Z</time>
      </trkpt>
      <trkpt lat="43.52066" lon="2.44125">
        <ele>474.640106</ele>
        <time>2014-12-14T10:24:16Z</time>
      </trkpt>
      <trkpt lat="43.52057" lon="2.44106">
        <ele>472.526184</ele>
        <time>2014-12-14T10:24:24Z</time>
      </trkpt>
      <trkpt lat="43.52068" lon="2.44083">
        <ele>473.671143</ele>
        <time>2014-12-14T10:24:29Z</time>
      </trkpt>
      <trkpt lat="43.52081" lon="2.44064">
        <ele>475.459381</ele>
        <time>2014-12-14T10:24:34Z</time>
      </trkpt>
      <trkpt lat="43.52073" lon="2.44054">
        <ele>475.598938</ele>
        <time>2014-12-14T10:24:41Z</time>
      </trkpt>
      <trkpt lat="43.52033" lon="2.44044">
        <ele>477.376373</ele>
        <time>2014-12-14T10:25:03Z</time>
      </trkpt>
      <trkpt lat="43.5201" lon="2.44052">
        <ele>477.222809</ele>
        <time>2014-12-14T10:25:17Z</time>
      </trkpt>
      <trkpt lat="43.51976" lon="2.44065">
        <ele>475.936829</ele>
        <time>2014-12-14T10:25:40Z</time>
      </trkpt>
      <trkpt lat="43.51957" lon="2.44077">
        <ele>473.897156</ele>
        <time>2014-12-14T10:26:02Z</time>
      </trkpt>
      <trkpt lat="43.51935" lon="2.44079">
        <ele>474.468842</ele>
        <time>2014-12-14T10:26:14Z</time>
      </trkpt>
      <trkpt lat="43.51916" lon="2.44072">
        <ele>476.555664</ele>
        <time>2014-12-14T10:26:21Z</time>
      </trkpt>
      <trkpt lat="43.51877" lon="2.44039">
        <ele>482.215973</ele>
        <time>2014-12-14T10:26:35Z</time>
      </trkpt>
      <trkpt lat="43.51862" lon="2.44024">
        <ele>483.602509</ele>
        <time>2014-12-14T10:26:42Z</time>
      </trkpt>
      <trkpt lat="43.51846" lon="2.44001">
        <ele>484.720001</ele>
        <time>2014-12-14T10:26:49Z</time>
      </trkpt>
      <trkpt lat="43.51835" lon="2.43975">
        <ele>486.535004</ele>
        <time>2014-12-14T10:26:55Z</time>
      </trkpt>
      <trkpt lat="43.51824" lon="2.43938">
        <ele>486.208832</ele>
        <time>2014-12-14T10:27:03Z</time>
      </trkpt>
      <trkpt lat="43.51819" lon="2.43915">
        <ele>485.72644</ele>
        <time>2014-12-14T10:27:07Z</time>
      </trkpt>
      <trkpt lat="43.51817" lon="2.43889">
        <ele>484.892487</ele>
        <time>2014-12-14T10:27:11Z</time>
      </trkpt>
      <trkpt lat="43.51809" lon="2.43841">
        <ele>482.651245</ele>
        <time>2014-12-14T10:27:19Z</time>
      </trkpt>
      <trkpt lat="43.51797" lon="2.43795">
        <ele>480.24646</ele>
        <time>2014-12-14T10:27:27Z</time>
      </trkpt>
      <trkpt lat="43.51789" lon="2.43768">
        <ele>479.265625</ele>
        <time>2014-12-14T10:27:31Z</time>
      </trkpt>
      <trkpt lat="43.51784" lon="2.43744">
        <ele>479.287506</ele>
        <time>2014-12-14T10:27:35Z</time>
      </trkpt>
      <trkpt lat="43.51773" lon="2.43717">
        <ele>479.022491</ele>
        <time>2014-12-14T10:27:40Z</time>
      </trkpt>
      <trkpt lat="43.51764" lon="2.43683">
        <ele>478.94751</ele>
        <time>2014-12-14T10:27:46Z</time>
      </trkpt>
      <trkpt lat="43.51718" lon="2.43541">
        <ele>476.237488</ele>
        <time>2014-12-14T10:28:05Z</time>
      </trkpt>
      <trkpt lat="43.51675" lon="2.43405">
        <ele>471.261261</ele>
        <time>2014-12-14T10:28:18Z</time>
      </trkpt>
      <trkpt lat="43.51617" lon="2.43225">
        <ele>465.566254</ele>
        <time>2014-12-14T10:28:35Z</time>
      </trkpt>
      <trkpt lat="43.51603" lon="2.43178">
        <ele>465.375</ele>
        <time>2014-12-14T10:28:40Z</time>
      </trkpt>
      <trkpt lat="43.51597" lon="2.43153">
        <ele>465.122498</ele>
        <time>2014-12-14T10:28:43Z</time>
      </trkpt>
      <trkpt lat="43.51598" lon="2.4313">
        <ele>465.234985</ele>
        <time>2014-12-14T10:29:17Z</time>
      </trkpt>
      <trkpt lat="43.51605" lon="2.43075">
        <ele>465.700012</ele>
        <time>2014-12-14T10:29:35Z</time>
      </trkpt>
      <trkpt lat="43.51605" lon="2.43046">
        <ele>465.67749</ele>
        <time>2014-12-14T10:29:41Z</time>
      </trkpt>
      <trkpt lat="43.51593" lon="2.43024">
        <ele>464.596252</ele>
        <time>2014-12-14T10:29:46Z</time>
      </trkpt>
      <trkpt lat="43.51578" lon="2.43008">
        <ele>463.276245</ele>
        <time>2014-12-14T10:29:50Z</time>
      </trkpt>
      <trkpt lat="43.51563" lon="2.42988">
        <ele>461.982605</ele>
        <time>2014-12-14T10:29:54Z</time>
      </trkpt>
      <trkpt lat="43.51553" lon="2.4296">
        <ele>460.794739</ele>
        <time>2014-12-14T10:29:58Z</time>
      </trkpt>
      <trkpt lat="43.51544" lon="2.42928">
        <ele>459.331299</ele>
        <time>2014-12-14T10:30:03Z</time>
      </trkpt>
      <trkpt lat="43.51534" lon="2.42905">
        <ele>457.67099</ele>
        <time>2014-12-14T10:30:09Z</time>
      </trkpt>
      <trkpt lat="43.51518" lon="2.42889">
        <ele>455.797485</ele>
        <time>2014-12-14T10:30:14Z</time>
      </trkpt>
      <trkpt lat="43.51503" lon="2.42868">
        <ele>453.839996</ele>
        <time>2014-12-14T10:30:19Z</time>
      </trkpt>
      <trkpt lat="43.51448" lon="2.42773">
        <ele>446.434998</ele>
        <time>2014-12-14T10:30:37Z</time>
      </trkpt>
      <trkpt lat="43.51434" lon="2.42753">
        <ele>444.897491</ele>
        <time>2014-12-14T10:30:41Z</time>
      </trkpt>
      <trkpt lat="43.5141" lon="2.42715">
        <ele>441.712494</ele>
        <time>2014-12-14T10:30:52Z</time>
      </trkpt>
      <trkpt lat="43.51385" lon="2.42671">
        <ele>437.920135</ele>
        <time>2014-12-14T10:31:07Z</time>
      </trkpt>
      <trkpt lat="43.51372" lon="2.42651">
        <ele>435.6185</ele>
        <time>2014-12-14T10:31:14Z</time>
      </trkpt>
      <trkpt lat="43.51362" lon="2.42629">
        <ele>433.848877</ele>
        <time>2014-12-14T10:31:20Z</time>
      </trkpt>
      <trkpt lat="43.51366" lon="2.42604">
        <ele>433.026245</ele>
        <time>2014-12-14T10:31:25Z</time>
      </trkpt>
      <trkpt lat="43.51354" lon="2.42588">
        <ele>432.266235</ele>
        <time>2014-12-14T10:31:29Z</time>
      </trkpt>
      <trkpt lat="43.51338" lon="2.42577">
        <ele>431.352509</ele>
        <time>2014-12-14T10:31:33Z</time>
      </trkpt>
      <trkpt lat="43.51318" lon="2.42559">
        <ele>430.179993</ele>
        <time>2014-12-14T10:31:39Z</time>
      </trkpt>
      <trkpt lat="43.51297" lon="2.42545">
        <ele>428.969513</ele>
        <time>2014-12-14T10:31:44Z</time>
      </trkpt>
      <trkpt lat="43.51258" lon="2.42504">
        <ele>426.266907</ele>
        <time>2014-12-14T10:31:57Z</time>
      </trkpt>
      <trkpt lat="43.51241" lon="2.42493">
        <ele>425.52771</ele>
        <time>2014-12-14T10:32:01Z</time>
      </trkpt>
      <trkpt lat="43.51224" lon="2.42481">
        <ele>424.642578</ele>
        <time>2014-12-14T10:32:05Z</time>
      </trkpt>
      <trkpt lat="43.51208" lon="2.42461">
        <ele>423.638275</ele>
        <time>2014-12-14T10:32:09Z</time>
      </trkpt>
      <trkpt lat="43.51195" lon="2.42441">
        <ele>422.352112</ele>
        <time>2014-12-14T10:32:13Z</time>
      </trkpt>
      <trkpt lat="43.5117" lon="2.42386">
        <ele>418.324738</ele>
        <time>2014-12-14T10:32:27Z</time>
      </trkpt>
      <trkpt lat="43.51118" lon="2.42291">
        <ele>413.087341</ele>
        <time>2014-12-14T10:32:40Z</time>
      </trkpt>
      <trkpt lat="43.51106" lon="2.42264">
        <ele>409.963135</ele>
        <time>2014-12-14T10:32:43Z</time>
      </trkpt>
      <trkpt lat="43.51094" lon="2.42233">
        <ele>406.860535</ele>
        <time>2014-12-14T10:32:46Z</time>
      </trkpt>
      <trkpt lat="43.51084" lon="2.42205">
        <ele>403.865051</ele>
        <time>2014-12-14T10:32:49Z</time>
      </trkpt>
      <trkpt lat="43.51078" lon="2.42183">
        <ele>402.248749</ele>
        <time>2014-12-14T10:32:52Z</time>
      </trkpt>
      <trkpt lat="43.51065" lon="2.42159">
        <ele>398.103516</ele>
        <time>2014-12-14T10:32:56Z</time>
      </trkpt>
      <trkpt lat="43.51045" lon="2.42112">
        <ele>391.747192</ele>
        <time>2014-12-14T10:33:03Z</time>
      </trkpt>
      <trkpt lat="43.51021" lon="2.42072">
        <ele>386.297211</ele>
        <time>2014-12-14T10:33:09Z</time>
      </trkpt>
      <trkpt lat="43.51008" lon="2.42048">
        <ele>383.444946</ele>
        <time>2014-12-14T10:33:13Z</time>
      </trkpt>
      <trkpt lat="43.50998" lon="2.42007">
        <ele>384.391876</ele>
        <time>2014-12-14T10:33:19Z</time>
      </trkpt>
      <trkpt lat="43.5099" lon="2.41982">
        <ele>384.95343</ele>
        <time>2014-12-14T10:33:24Z</time>
      </trkpt>
      <trkpt lat="43.50968" lon="2.41936">
        <ele>382.261475</ele>
        <time>2014-12-14T10:33:36Z</time>
      </trkpt>
      <trkpt lat="43.50958" lon="2.41911">
        <ele>380.817505</ele>
        <time>2014-12-14T10:33:40Z</time>
      </trkpt>
      <trkpt lat="43.50949" lon="2.41887">
        <ele>381.531586</ele>
        <time>2014-12-14T10:33:44Z</time>
      </trkpt>
      <trkpt lat="43.50939" lon="2.41867">
        <ele>382.637665</ele>
        <time>2014-12-14T10:33:48Z</time>
      </trkpt>
      <trkpt lat="43.50919" lon="2.41864">
        <ele>374.626404</ele>
        <time>2014-12-14T10:33:53Z</time>
      </trkpt>
      <trkpt lat="43.50907" lon="2.41848">
        <ele>372.862762</ele>
        <time>2014-12-14T10:33:57Z</time>
      </trkpt>
      <trkpt lat="43.50877" lon="2.41799">
        <ele>375.23175</ele>
        <time>2014-12-14T10:34:07Z</time>
      </trkpt>
      <trkpt lat="43.50866" lon="2.41775">
        <ele>374.525818</ele>
        <time>2014-12-14T10:34:12Z</time>
      </trkpt>
      <trkpt lat="43.50852" lon="2.41762">
        <ele>373.484436</ele>
        <time>2014-12-14T10:34:17Z</time>
      </trkpt>
      <trkpt lat="43.50817" lon="2.41739">
        <ele>366.389893</ele>
        <time>2014-12-14T10:34:27Z</time>
      </trkpt>
      <trkpt lat="43.508" lon="2.4173">
        <ele>361.434723</ele>
        <time>2014-12-14T10:34:32Z</time>
      </trkpt>
      <trkpt lat="43.5079" lon="2.4171">
        <ele>359.251343</ele>
        <time>2014-12-14T10:34:37Z</time>
      </trkpt>
      <trkpt lat="43.5077" lon="2.41661">
        <ele>357.591827</ele>
        <time>2014-12-14T10:34:48Z</time>
      </trkpt>
      <trkpt lat="43.50764" lon="2.41637">
        <ele>357.40979</ele>
        <time>2014-12-14T10:34:52Z</time>
      </trkpt>
      <trkpt lat="43.50753" lon="2.41574">
        <ele>357.126221</ele>
        <time>2014-12-14T10:35:02Z</time>
      </trkpt>
      <trkpt lat="43.50748" lon="2.41549">
        <ele>356.547302</ele>
        <time>2014-12-14T10:35:05Z</time>
      </trkpt>
      <trkpt lat="43.50728" lon="2.41495">
        <ele>352.619324</ele>
        <time>2014-12-14T10:35:14Z</time>
      </trkpt>
      <trkpt lat="43.50715" lon="2.41471">
        <ele>348.851074</ele>
        <time>2014-12-14T10:35:17Z</time>
      </trkpt>
      <trkpt lat="43.50708" lon="2.41444">
        <ele>345.858398</ele>
        <time>2014-12-14T10:35:20Z</time>
      </trkpt>
      <trkpt lat="43.5071" lon="2.41418">
        <ele>344.876587</ele>
        <time>2014-12-14T10:35:23Z</time>
      </trkpt>
      <trkpt lat="43.50727" lon="2.41213">
        <ele>335.66507</ele>
        <time>2014-12-14T10:35:46Z</time>
      </trkpt>
      <trkpt lat="43.5073" lon="2.4119">
        <ele>333.718353</ele>
        <time>2014-12-14T10:35:48Z</time>
      </trkpt>
      <trkpt lat="43.50732" lon="2.41157">
        <ele>331.662537</ele>
        <time>2014-12-14T10:35:51Z</time>
      </trkpt>
      <trkpt lat="43.50738" lon="2.41124">
        <ele>330.219818</ele>
        <time>2014-12-14T10:35:54Z</time>
      </trkpt>
      <trkpt lat="43.50746" lon="2.41103">
        <ele>330.651642</ele>
        <time>2014-12-14T10:35:56Z</time>
      </trkpt>
      <trkpt lat="43.50752" lon="2.41081">
        <ele>330.601196</ele>
        <time>2014-12-14T10:35:58Z</time>
      </trkpt>
      <trkpt lat="43.50746" lon="2.41052">
        <ele>329.302979</ele>
        <time>2014-12-14T10:36:01Z</time>
      </trkpt>
      <trkpt lat="43.50729" lon="2.41056">
        <ele>326.548065</ele>
        <time>2014-12-14T10:36:08Z</time>
      </trkpt>
      <trkpt lat="43.5071" lon="2.41071">
        <ele>323.617188</ele>
        <time>2014-12-14T10:36:12Z</time>
      </trkpt>
      <trkpt lat="43.50687" lon="2.41071">
        <ele>318.739899</ele>
        <time>2014-12-14T10:36:16Z</time>
      </trkpt>
      <trkpt lat="43.50663" lon="2.41032">
        <ele>311.055023</ele>
        <time>2014-12-14T10:38:52Z</time>
      </trkpt>
      <trkpt lat="43.50645" lon="2.40993">
        <ele>303.78125</ele>
        <time>2014-12-14T10:39:08Z</time>
      </trkpt>
      <trkpt lat="43.50635" lon="2.40938">
        <ele>299.770325</ele>
        <time>2014-12-14T10:39:19Z</time>
      </trkpt>
      <trkpt lat="43.50623" lon="2.40918">
        <ele>295.746094</ele>
        <time>2014-12-14T10:39:25Z</time>
      </trkpt>
      <trkpt lat="43.5061" lon="2.40902">
        <ele>291.804993</ele>
        <time>2014-12-14T10:39:30Z</time>
      </trkpt>
      <trkpt lat="43.50586" lon="2.40866">
        <ele>284.492493</ele>
        <time>2014-12-14T10:39:44Z</time>
      </trkpt>
      <trkpt lat="43.50579" lon="2.40842">
        <ele>281.5</ele>
        <time>2014-12-14T10:39:51Z</time>
      </trkpt>
      <trkpt lat="43.50571" lon="2.40822">
        <ele>278.547485</ele>
        <time>2014-12-14T10:39:57Z</time>
      </trkpt>
      <trkpt lat="43.50558" lon="2.40781">
        <ele>273.456329</ele>
        <time>2014-12-14T10:40:16Z</time>
      </trkpt>
      <trkpt lat="43.50548" lon="2.40754">
        <ele>269.99173</ele>
        <time>2014-12-14T10:40:20Z</time>
      </trkpt>
      <trkpt lat="43.50543" lon="2.40729">
        <ele>267.970703</ele>
        <time>2014-12-14T10:40:24Z</time>
      </trkpt>
      <trkpt lat="43.50527" lon="2.40708">
        <ele>264.459991</ele>
        <time>2014-12-14T10:40:28Z</time>
      </trkpt>
      <trkpt lat="43.50508" lon="2.40691">
        <ele>260.953766</ele>
        <time>2014-12-14T10:40:32Z</time>
      </trkpt>
      <trkpt lat="43.50494" lon="2.40676">
        <ele>258.042511</ele>
        <time>2014-12-14T10:40:36Z</time>
      </trkpt>
      <trkpt lat="43.5048" lon="2.40659">
        <ele>255.242645</ele>
        <time>2014-12-14T10:40:41Z</time>
      </trkpt>
      <trkpt lat="43.50461" lon="2.40661">
        <ele>252.722946</ele>
        <time>2014-12-14T10:40:51Z</time>
      </trkpt>
      <trkpt lat="43.50443" lon="2.40665">
        <ele>250.449768</ele>
        <time>2014-12-14T10:40:55Z</time>
      </trkpt>
      <trkpt lat="43.50423" lon="2.40672">
        <ele>248.070389</ele>
        <time>2014-12-14T10:41:00Z</time>
      </trkpt>
      <trkpt lat="43.50405" lon="2.40677">
        <ele>245.855377</ele>
        <time>2014-12-14T10:41:05Z</time>
      </trkpt>
      <trkpt lat="43.50401" lon="2.40717">
        <ele>245.753754</ele>
        <time>2014-12-14T10:41:15Z</time>
      </trkpt>
      <trkpt lat="43.50395" lon="2.40807">
        <ele>245.491776</ele>
        <time>2014-12-14T10:41:30Z</time>
      </trkpt>
      <trkpt lat="43.50378" lon="2.40828">
        <ele>242.523666</ele>
        <time>2014-12-14T10:41:34Z</time>
      </trkpt>
      <trkpt lat="43.50348" lon="2.40849">
        <ele>239.860931</ele>
        <time>2014-12-14T10:41:39Z</time>
      </trkpt>
      <trkpt lat="43.50334" lon="2.40836">
        <ele>241.36937</ele>
        <time>2014-12-14T10:41:42Z</time>
      </trkpt>
      <trkpt lat="43.50306" lon="2.40753">
        <ele>242.16716</ele>
        <time>2014-12-14T10:41:53Z</time>
      </trkpt>
      <trkpt lat="43.50276" lon="2.40654">
        <ele>241.707123</ele>
        <time>2014-12-14T10:42:05Z</time>
      </trkpt>
      <trkpt lat="43.50268" lon="2.40629">
        <ele>241.633041</ele>
        <time>2014-12-14T10:42:08Z</time>
      </trkpt>
      <trkpt lat="43.50252" lon="2.40589">
        <ele>242.630417</ele>
        <time>2014-12-14T10:42:13Z</time>
      </trkpt>
      <trkpt lat="43.50225" lon="2.40526">
        <ele>243.932892</ele>
        <time>2014-12-14T10:42:21Z</time>
      </trkpt>
      <trkpt lat="43.50164" lon="2.40372">
        <ele>244.154999</ele>
        <time>2014-12-14T10:42:42Z</time>
      </trkpt>
      <trkpt lat="43.50154" lon="2.4035">
        <ele>244.130005</ele>
        <time>2014-12-14T10:47:38Z</time>
      </trkpt>
      <trkpt lat="43.50129" lon="2.40301">
        <ele>244.229996</ele>
        <time>2014-12-14T10:47:47Z</time>
      </trkpt>
      <trkpt lat="43.501" lon="2.40261">
        <ele>244.232498</ele>
        <time>2014-12-14T10:47:54Z</time>
      </trkpt>
      <trkpt lat="43.5008" lon="2.40241">
        <ele>244.421936</ele>
        <time>2014-12-14T10:47:58Z</time>
      </trkpt>
      <trkpt lat="43.5004" lon="2.40224">
        <ele>245.355698</ele>
        <time>2014-12-14T10:48:05Z</time>
      </trkpt>
      <trkpt lat="43.49999" lon="2.40214">
        <ele>244.339996</ele>
        <time>2014-12-14T10:48:12Z</time>
      </trkpt>
      <trkpt lat="43.49948" lon="2.402">
        <ele>241.904068</ele>
        <time>2014-12-14T10:48:21Z</time>
      </trkpt>
      <trkpt lat="43.49936" lon="2.40181">
        <ele>240.574249</ele>
        <time>2014-12-14T10:48:24Z</time>
      </trkpt>
      <trkpt lat="43.49936" lon="2.40149">
        <ele>240.204895</ele>
        <time>2014-12-14T10:48:27Z</time>
      </trkpt>
      <trkpt lat="43.4993" lon="2.40115">
        <ele>239.863556</ele>
        <time>2014-12-14T10:48:30Z</time>
      </trkpt>
      <trkpt lat="43.49918" lon="2.40096">
        <ele>239.392258</ele>
        <time>2014-12-14T10:48:32Z</time>
      </trkpt>
      <trkpt lat="43.49901" lon="2.40087">
        <ele>238.627502</ele>
        <time>2014-12-14T10:48:34Z</time>
      </trkpt>
      <trkpt lat="43.49883" lon="2.40081">
        <ele>237.482498</ele>
        <time>2014-12-14T10:48:36Z</time>
      </trkpt>
      <trkpt lat="43.49823" lon="2.40057">
        <ele>233.630569</ele>
        <time>2014-12-14T10:48:43Z</time>
      </trkpt>
      <trkpt lat="43.49799" lon="2.40051">
        <ele>231.949997</ele>
        <time>2014-12-14T10:48:46Z</time>
      </trkpt>
      <trkpt lat="43.49767" lon="2.4005">
        <ele>229.878372</ele>
        <time>2014-12-14T10:48:50Z</time>
      </trkpt>
      <trkpt lat="43.49746" lon="2.40039">
        <ele>228.656494</ele>
        <time>2014-12-14T10:48:53Z</time>
      </trkpt>
      <trkpt lat="43.49735" lon="2.40022">
        <ele>227.765549</ele>
        <time>2014-12-16T09:26:01Z</time>
      </trkpt>
      <trkpt lat="43.49711" lon="2.40002">
        <ele>226.348419</ele>
        <time>2014-12-16T09:26:06Z</time>
      </trkpt>
      <trkpt lat="43.49678" lon="2.40022">
        <ele>224.891724</ele>
        <time>2014-12-16T09:26:13Z</time>
      </trkpt>
      <trkpt lat="43.49656" lon="2.40037">
        <ele>223.635101</ele>
        <time>2014-12-16T09:26:18Z</time>
      </trkpt>
      <trkpt lat="43.49637" lon="2.40046">
        <ele>222.652344</ele>
        <time>2014-12-16T09:26:22Z</time>
      </trkpt>
      <trkpt lat="43.49622" lon="2.4003">
        <ele>221.686249</ele>
        <time>2014-12-16T09:26:26Z</time>
      </trkpt>
      <trkpt lat="43.49592" lon="2.40048">
        <ele>220.636246</ele>
        <time>2014-12-16T09:26:33Z</time>
      </trkpt>
      <trkpt lat="43.49566" lon="2.40079">
        <ele>222.686951</ele>
        <time>2014-12-16T09:26:40Z</time>
      </trkpt>
      <trkpt lat="43.49547" lon="2.40096">
        <ele>224.493195</ele>
        <time>2014-12-16T09:26:48Z</time>
      </trkpt>
      <trkpt lat="43.49541" lon="2.40065">
        <ele>225.002014</ele>
        <time>2014-12-16T09:27:00Z</time>
      </trkpt>
      <trkpt lat="43.49536" lon="2.40021">
        <ele>227.070618</ele>
        <time>2014-12-16T09:27:13Z</time>
      </trkpt>
      <trkpt lat="43.49535" lon="2.39987">
        <ele>229.239456</ele>
        <time>2014-12-16T09:27:20Z</time>
      </trkpt>
      <trkpt lat="43.49535" lon="2.39954">
        <ele>230.909836</ele>
        <time>2014-12-16T09:27:26Z</time>
      </trkpt>
      <trkpt lat="43.49537" lon="2.39924">
        <ele>231.41095</ele>
        <time>2014-12-16T09:27:31Z</time>
      </trkpt>
      <trkpt lat="43.49543" lon="2.39842">
        <ele>232.115005</ele>
        <time>2014-12-16T09:27:44Z</time>
      </trkpt>
      <trkpt lat="43.49547" lon="2.39801">
        <ele>232.080002</ele>
        <time>2014-12-16T09:27:50Z</time>
      </trkpt>
      <trkpt lat="43.4955" lon="2.39761">
        <ele>232.243057</ele>
        <time>2014-12-16T09:27:56Z</time>
      </trkpt>
      <trkpt lat="43.49563" lon="2.39596">
        <ele>232.495224</ele>
        <time>2014-12-16T09:28:20Z</time>
      </trkpt>
      <trkpt lat="43.49575" lon="2.39416">
        <ele>235.386246</ele>
        <time>2014-12-16T09:28:55Z</time>
      </trkpt>
      <trkpt lat="43.49582" lon="2.39351">
        <ele>236.143753</ele>
        <time>2014-12-16T09:29:05Z</time>
      </trkpt>
      <trkpt lat="43.49586" lon="2.39296">
        <ele>236.271881</ele>
        <time>2014-12-16T09:29:13Z</time>
      </trkpt>
      <trkpt lat="43.49591" lon="2.39195">
        <ele>235.955002</ele>
        <time>2014-12-16T09:29:27Z</time>
      </trkpt>
      <trkpt lat="43.49599" lon="2.39122">
        <ele>236.00795</ele>
        <time>2014-12-16T09:29:37Z</time>
      </trkpt>
      <trkpt lat="43.49605" lon="2.3908">
        <ele>236.237488</ele>
        <time>2014-12-16T09:29:43Z</time>
      </trkpt>
      <trkpt lat="43.49623" lon="2.38981">
        <ele>238.833755</ele>
        <time>2014-12-16T09:29:57Z</time>
      </trkpt>
      <trkpt lat="43.49627" lon="2.38954">
        <ele>239.807053</ele>
        <time>2014-12-16T09:30:02Z</time>
      </trkpt>
      <trkpt lat="43.49623" lon="2.3893">
        <ele>240.833145</ele>
        <time>2014-12-16T09:30:09Z</time>
      </trkpt>
      <trkpt lat="43.4963" lon="2.38901">
        <ele>241.419998</ele>
        <time>2014-12-16T09:30:15Z</time>
      </trkpt>
      <trkpt lat="43.49642" lon="2.38855">
        <ele>241.373749</ele>
        <time>2014-12-16T09:30:23Z</time>
      </trkpt>
      <trkpt lat="43.49653" lon="2.38803">
        <ele>241.446259</ele>
        <time>2014-12-16T09:30:32Z</time>
      </trkpt>
      <trkpt lat="43.49665" lon="2.38761">
        <ele>241.326248</ele>
        <time>2014-12-16T09:30:39Z</time>
      </trkpt>
      <trkpt lat="43.49675" lon="2.38719">
        <ele>241.354996</ele>
        <time>2014-12-16T09:30:46Z</time>
      </trkpt>
      <trkpt lat="43.49687" lon="2.38693">
        <ele>240.96875</ele>
        <time>2014-12-16T09:30:51Z</time>
      </trkpt>
      <trkpt lat="43.49691" lon="2.38668">
        <ele>241.142502</ele>
        <time>2014-12-16T09:30:55Z</time>
      </trkpt>
      <trkpt lat="43.49695" lon="2.38612">
        <ele>241.284164</ele>
        <time>2014-12-16T09:31:03Z</time>
      </trkpt>
      <trkpt lat="43.49694" lon="2.38571">
        <ele>241.806244</ele>
        <time>2014-12-16T09:31:09Z</time>
      </trkpt>
      <trkpt lat="43.4969" lon="2.38523">
        <ele>242.881393</ele>
        <time>2014-12-16T09:31:16Z</time>
      </trkpt>
      <trkpt lat="43.49683" lon="2.38476">
        <ele>244.67923</ele>
        <time>2014-12-16T09:31:23Z</time>
      </trkpt>
      <trkpt lat="43.49677" lon="2.38442">
        <ele>246.134995</ele>
        <time>2014-12-16T09:31:28Z</time>
      </trkpt>
      <trkpt lat="43.49669" lon="2.3837">
        <ele>248.005295</ele>
        <time>2014-12-16T09:31:39Z</time>
      </trkpt>
      <trkpt lat="43.4966" lon="2.38314">
        <ele>248.16098</ele>
        <time>2014-12-16T09:31:48Z</time>
      </trkpt>
      <trkpt lat="43.49653" lon="2.38263">
        <ele>247.827499</ele>
        <time>2014-12-16T09:31:56Z</time>
      </trkpt>
      <trkpt lat="43.49646" lon="2.38223">
        <ele>247.400009</ele>
        <time>2014-12-16T09:32:04Z</time>
      </trkpt>
      <trkpt lat="43.49661" lon="2.38194">
        <ele>245.371246</ele>
        <time>2014-12-16T09:32:15Z</time>
      </trkpt>
      <trkpt lat="43.49648" lon="2.38167">
        <ele>244.631256</ele>
        <time>2014-12-16T09:32:21Z</time>
      </trkpt>
      <trkpt lat="43.49635" lon="2.38144">
        <ele>244.118256</ele>
        <time>2014-12-16T09:32:27Z</time>
      </trkpt>
      <trkpt lat="43.49627" lon="2.38086">
        <ele>242.307495</ele>
        <time>2014-12-16T09:32:36Z</time>
      </trkpt>
      <trkpt lat="43.4962" lon="2.38038">
        <ele>242.011185</ele>
        <time>2014-12-16T09:32:43Z</time>
      </trkpt>
      <trkpt lat="43.49612" lon="2.37975">
        <ele>241.016251</ele>
        <time>2014-12-16T09:32:52Z</time>
      </trkpt>
      <trkpt lat="43.49609" lon="2.37912">
        <ele>240.15094</ele>
        <time>2014-12-16T09:33:01Z</time>
      </trkpt>
      <trkpt lat="43.4961" lon="2.37866">
        <ele>239.683533</ele>
        <time>2014-12-16T09:33:08Z</time>
      </trkpt>
      <trkpt lat="43.49613" lon="2.37834">
        <ele>239.505005</ele>
        <time>2014-12-16T09:33:13Z</time>
      </trkpt>
      <trkpt lat="43.49622" lon="2.37797">
        <ele>239.304993</ele>
        <time>2014-12-16T09:33:20Z</time>
      </trkpt>
      <trkpt lat="43.49637" lon="2.37762">
        <ele>239.451355</ele>
        <time>2014-12-16T09:33:28Z</time>
      </trkpt>
      <trkpt lat="43.49641" lon="2.37781">
        <ele>239.055695</ele>
        <time>2014-12-16T09:33:36Z</time>
      </trkpt>
      <trkpt lat="43.49632" lon="2.378">
        <ele>239.092499</ele>
        <time>2014-12-16T09:33:40Z</time>
      </trkpt>
      <trkpt lat="43.49612" lon="2.37773">
        <ele>240.00589</ele>
        <time>2014-12-16T09:33:46Z</time>
      </trkpt>
      <trkpt lat="43.49602" lon="2.37752">
        <ele>240.907181</ele>
        <time>2014-12-16T09:33:50Z</time>
      </trkpt>
      <trkpt lat="43.49582" lon="2.37736">
        <ele>241.852493</ele>
        <time>2014-12-16T09:33:55Z</time>
      </trkpt>
      <trkpt lat="43.49517" lon="2.37698">
        <ele>243.192505</ele>
        <time>2014-12-16T09:34:16Z</time>
      </trkpt>
      <trkpt lat="43.49501" lon="2.37654">
        <ele>244.248749</ele>
        <time>2014-12-16T09:34:26Z</time>
      </trkpt>
      <trkpt lat="43.49491" lon="2.37634">
        <ele>244.803757</ele>
        <time>2014-12-16T09:34:34Z</time>
      </trkpt>
      <trkpt lat="43.49474" lon="2.37619">
        <ele>245.413757</ele>
        <time>2014-12-16T09:34:39Z</time>
      </trkpt>
      <trkpt lat="43.49411" lon="2.37576">
        <ele>246</ele>
        <time>2014-12-16T09:34:56Z</time>
      </trkpt>
      <trkpt lat="43.49402" lon="2.37557">
        <ele>246.217499</ele>
        <time>2014-12-16T09:35:00Z</time>
      </trkpt>
      <trkpt lat="43.49407" lon="2.37532">
        <ele>246.313095</ele>
        <time>2014-12-16T09:35:04Z</time>
      </trkpt>
      <trkpt lat="43.4941" lon="2.37508">
        <ele>246.621231</ele>
        <time>2014-12-16T09:35:08Z</time>
      </trkpt>
      <trkpt lat="43.49415" lon="2.37487">
        <ele>246.878601</ele>
        <time>2014-12-16T09:35:13Z</time>
      </trkpt>
      <trkpt lat="43.49443" lon="2.37499">
        <ele>246.222351</ele>
        <time>2014-12-16T09:35:31Z</time>
      </trkpt>
    </trkseg>
  </trk>
  <trk>
    <name><![CDATA[acces pas des betes vintrou_2]]></name>
    <trkseg>
      <trkpt lat="43.55175" lon="2.43348">
        <ele>626.4</ele>
      </trkpt>
      <trkpt lat="43.55175" lon="2.43348">
        <ele>626.4</ele>
      </trkpt>
    </trkseg>
  </trk>
</gpx>